<?xml version="1.0" encoding="UTF-8" standalone="no" ?>
<gpx xmlns="http://www.topografix.com/GPX/1/1" xmlns:xsi="http://www.w3.org/2001/XMLSchema-instance" xsi:schemaLocation="http://www.topografix.com/GPX/1/1 http://www.topografix.com/GPX/1/1/gpx.xsd" version="1.1" creator="VisuGPX - https://www.visugpx.com">
  <metadata>
    <name>Col du moulin - Charteuse de la Verne</name>
    <desc><![CDATA[Randonnée en boucle de 14 km]]></desc>
  </metadata>
  <trk>
    <name><![CDATA[Col du Boulin - Chartreuse de la Verne_R]]></name>
    <trkseg>
      <trkpt lat="43.23425" lon="6.3635">
        <ele>318.79998779297</ele>
        <time>2013-08-15T05:55:11Z</time>
      </trkpt>
      <trkpt lat="43.23421" lon="6.36351">
        <ele>318</ele>
        <time>2013-08-15T05:55:48Z</time>
      </trkpt>
      <trkpt lat="43.23422" lon="6.36351">
        <ele>318.20001220703</ele>
        <time>2013-08-15T05:56:17Z</time>
      </trkpt>
      <trkpt lat="43.23424" lon="6.36352">
        <ele>318.79998779297</ele>
        <time>2013-08-15T05:56:50Z</time>
      </trkpt>
      <trkpt lat="43.23425" lon="6.36347">
        <ele>318.60000610352</ele>
        <time>2013-08-15T05:57:02Z</time>
      </trkpt>
      <trkpt lat="43.23423" lon="6.36345">
        <ele>318</ele>
        <time>2013-08-15T05:57:19Z</time>
      </trkpt>
      <trkpt lat="43.23426" lon="6.36344">
        <ele>318.39999389648</ele>
        <time>2013-08-15T05:57:45Z</time>
      </trkpt>
      <trkpt lat="43.23425" lon="6.36344">
        <ele>318.39999389648</ele>
        <time>2013-08-15T05:58:17Z</time>
      </trkpt>
      <trkpt lat="43.23424" lon="6.36344">
        <ele>318</ele>
        <time>2013-08-15T05:58:52Z</time>
      </trkpt>
      <trkpt lat="43.23425" lon="6.36342">
        <ele>318.39999389648</ele>
        <time>2013-08-15T05:59:28Z</time>
      </trkpt>
      <trkpt lat="43.23425" lon="6.36342">
        <ele>318.20001220703</ele>
        <time>2013-08-15T06:00:02Z</time>
      </trkpt>
      <trkpt lat="43.23419" lon="6.36341">
        <ele>317</ele>
        <time>2013-08-15T06:00:32Z</time>
      </trkpt>
      <trkpt lat="43.23427" lon="6.36346">
        <ele>318.79998779297</ele>
        <time>2013-08-15T06:00:59Z</time>
      </trkpt>
      <trkpt lat="43.23425" lon="6.36344">
        <ele>318.39999389648</ele>
        <time>2013-08-15T06:01:19Z</time>
      </trkpt>
      <trkpt lat="43.23426" lon="6.36344">
        <ele>318.60000610352</ele>
        <time>2013-08-15T06:01:23Z</time>
      </trkpt>
      <trkpt lat="43.23426" lon="6.36344">
        <ele>318.60000610352</ele>
        <time>2013-08-15T06:01:24Z</time>
      </trkpt>
      <trkpt lat="43.23427" lon="6.36344">
        <ele>318.79998779297</ele>
        <time>2013-08-15T06:01:27Z</time>
      </trkpt>
      <trkpt lat="43.23427" lon="6.36344">
        <ele>318.79998779297</ele>
        <time>2013-08-15T06:01:28Z</time>
      </trkpt>
      <trkpt lat="43.23425" lon="6.36346">
        <ele>318.60000610352</ele>
        <time>2013-08-15T06:01:55Z</time>
      </trkpt>
      <trkpt lat="43.23424" lon="6.36348">
        <ele>318.39999389648</ele>
        <time>2013-08-15T06:02:06Z</time>
      </trkpt>
      <trkpt lat="43.23424" lon="6.36346">
        <ele>318.39999389648</ele>
        <time>2013-08-15T06:02:18Z</time>
      </trkpt>
      <trkpt lat="43.23427" lon="6.3634">
        <ele>318.60000610352</ele>
        <time>2013-08-15T06:02:33Z</time>
      </trkpt>
      <trkpt lat="43.23424" lon="6.36323">
        <ele>317.60000610352</ele>
        <time>2013-08-15T06:02:50Z</time>
      </trkpt>
      <trkpt lat="43.23425" lon="6.3631">
        <ele>318</ele>
        <time>2013-08-15T06:03:06Z</time>
      </trkpt>
      <trkpt lat="43.23425" lon="6.3632">
        <ele>317.79998779297</ele>
        <time>2013-08-15T06:03:22Z</time>
      </trkpt>
      <trkpt lat="43.23426" lon="6.36325">
        <ele>318</ele>
        <time>2013-08-15T06:03:38Z</time>
      </trkpt>
      <trkpt lat="43.23425" lon="6.36314">
        <ele>317.79998779297</ele>
        <time>2013-08-15T06:03:54Z</time>
      </trkpt>
      <trkpt lat="43.23426" lon="6.36322">
        <ele>318</ele>
        <time>2013-08-15T06:04:06Z</time>
      </trkpt>
      <trkpt lat="43.23423" lon="6.36308">
        <ele>317.60000610352</ele>
        <time>2013-08-15T06:04:23Z</time>
      </trkpt>
      <trkpt lat="43.23423" lon="6.36288">
        <ele>317.60000610352</ele>
        <time>2013-08-15T06:04:39Z</time>
      </trkpt>
      <trkpt lat="43.23426" lon="6.36282">
        <ele>318.20001220703</ele>
        <time>2013-08-15T06:04:52Z</time>
      </trkpt>
      <trkpt lat="43.23434" lon="6.36265">
        <ele>319.60000610352</ele>
        <time>2013-08-15T06:05:09Z</time>
      </trkpt>
      <trkpt lat="43.23434" lon="6.36254">
        <ele>319.60000610352</ele>
        <time>2013-08-15T06:05:19Z</time>
      </trkpt>
      <trkpt lat="43.23439" lon="6.36233">
        <ele>321.60000610352</ele>
        <time>2013-08-15T06:05:35Z</time>
      </trkpt>
      <trkpt lat="43.23443" lon="6.36215">
        <ele>323.39999389648</ele>
        <time>2013-08-15T06:05:50Z</time>
      </trkpt>
      <trkpt lat="43.23444" lon="6.36213">
        <ele>323.60000610352</ele>
        <time>2013-08-15T06:05:52Z</time>
      </trkpt>
      <trkpt lat="43.23452" lon="6.36191">
        <ele>325</ele>
        <time>2013-08-15T06:06:10Z</time>
      </trkpt>
      <trkpt lat="43.23458" lon="6.36173">
        <ele>325.79998779297</ele>
        <time>2013-08-15T06:06:26Z</time>
      </trkpt>
      <trkpt lat="43.2346" lon="6.36165">
        <ele>326</ele>
        <time>2013-08-15T06:06:32Z</time>
      </trkpt>
      <trkpt lat="43.23459" lon="6.36163">
        <ele>326.20001220703</ele>
        <time>2013-08-15T06:06:33Z</time>
      </trkpt>
      <trkpt lat="43.23459" lon="6.36161">
        <ele>326.60000610352</ele>
        <time>2013-08-15T06:06:34Z</time>
      </trkpt>
      <trkpt lat="43.2346" lon="6.36159">
        <ele>326.79998779297</ele>
        <time>2013-08-15T06:06:35Z</time>
      </trkpt>
      <trkpt lat="43.2346" lon="6.36157">
        <ele>327</ele>
        <time>2013-08-15T06:06:36Z</time>
      </trkpt>
      <trkpt lat="43.2346" lon="6.36155">
        <ele>327</ele>
        <time>2013-08-15T06:06:37Z</time>
      </trkpt>
      <trkpt lat="43.23469" lon="6.36136">
        <ele>327.79998779297</ele>
        <time>2013-08-15T06:06:51Z</time>
      </trkpt>
      <trkpt lat="43.2347" lon="6.36133">
        <ele>328</ele>
        <time>2013-08-15T06:06:54Z</time>
      </trkpt>
      <trkpt lat="43.23476" lon="6.36115">
        <ele>328.20001220703</ele>
        <time>2013-08-15T06:07:07Z</time>
      </trkpt>
      <trkpt lat="43.23486" lon="6.3609">
        <ele>327</ele>
        <time>2013-08-15T06:07:24Z</time>
      </trkpt>
      <trkpt lat="43.23494" lon="6.36071">
        <ele>326.60000610352</ele>
        <time>2013-08-15T06:07:39Z</time>
      </trkpt>
      <trkpt lat="43.23509" lon="6.36049">
        <ele>327.39999389648</ele>
        <time>2013-08-15T06:07:55Z</time>
      </trkpt>
      <trkpt lat="43.23516" lon="6.36043">
        <ele>328.20001220703</ele>
        <time>2013-08-15T06:08:02Z</time>
      </trkpt>
      <trkpt lat="43.23517" lon="6.36042">
        <ele>328.20001220703</ele>
        <time>2013-08-15T06:08:03Z</time>
      </trkpt>
      <trkpt lat="43.23518" lon="6.36041">
        <ele>328.20001220703</ele>
        <time>2013-08-15T06:08:04Z</time>
      </trkpt>
      <trkpt lat="43.2352" lon="6.36039">
        <ele>328.39999389648</ele>
        <time>2013-08-15T06:08:06Z</time>
      </trkpt>
      <trkpt lat="43.2352" lon="6.36038">
        <ele>328.39999389648</ele>
        <time>2013-08-15T06:08:07Z</time>
      </trkpt>
      <trkpt lat="43.23529" lon="6.36029">
        <ele>328.60000610352</ele>
        <time>2013-08-15T06:08:17Z</time>
      </trkpt>
      <trkpt lat="43.23551" lon="6.36017">
        <ele>327</ele>
        <time>2013-08-15T06:08:36Z</time>
      </trkpt>
      <trkpt lat="43.23568" lon="6.36007">
        <ele>324.79998779297</ele>
        <time>2013-08-15T06:08:53Z</time>
      </trkpt>
      <trkpt lat="43.23587" lon="6.36003">
        <ele>322.60000610352</ele>
        <time>2013-08-15T06:09:08Z</time>
      </trkpt>
      <trkpt lat="43.23607" lon="6.35996">
        <ele>325</ele>
        <time>2013-08-15T06:09:27Z</time>
      </trkpt>
      <trkpt lat="43.23611" lon="6.35996">
        <ele>325.39999389648</ele>
        <time>2013-08-15T06:09:29Z</time>
      </trkpt>
      <trkpt lat="43.23636" lon="6.3599">
        <ele>327.79998779297</ele>
        <time>2013-08-15T06:09:50Z</time>
      </trkpt>
      <trkpt lat="43.23657" lon="6.35985">
        <ele>329.20001220703</ele>
        <time>2013-08-15T06:10:09Z</time>
      </trkpt>
      <trkpt lat="43.23662" lon="6.3598">
        <ele>329.20001220703</ele>
        <time>2013-08-15T06:10:15Z</time>
      </trkpt>
      <trkpt lat="43.23662" lon="6.35978">
        <ele>329.20001220703</ele>
        <time>2013-08-15T06:10:16Z</time>
      </trkpt>
      <trkpt lat="43.2368" lon="6.35966">
        <ele>331</ele>
        <time>2013-08-15T06:10:30Z</time>
      </trkpt>
      <trkpt lat="43.2368" lon="6.35965">
        <ele>331</ele>
        <time>2013-08-15T06:10:31Z</time>
      </trkpt>
      <trkpt lat="43.23681" lon="6.35964">
        <ele>331</ele>
        <time>2013-08-15T06:10:32Z</time>
      </trkpt>
      <trkpt lat="43.23682" lon="6.35962">
        <ele>331</ele>
        <time>2013-08-15T06:10:33Z</time>
      </trkpt>
      <trkpt lat="43.23683" lon="6.35961">
        <ele>331.20001220703</ele>
        <time>2013-08-15T06:10:34Z</time>
      </trkpt>
      <trkpt lat="43.237" lon="6.35945">
        <ele>332.79998779297</ele>
        <time>2013-08-15T06:10:51Z</time>
      </trkpt>
      <trkpt lat="43.23728" lon="6.35943">
        <ele>337.60000610352</ele>
        <time>2013-08-15T06:11:13Z</time>
      </trkpt>
      <trkpt lat="43.23731" lon="6.35943">
        <ele>338</ele>
        <time>2013-08-15T06:11:15Z</time>
      </trkpt>
      <trkpt lat="43.23732" lon="6.35944">
        <ele>338.39999389648</ele>
        <time>2013-08-15T06:11:16Z</time>
      </trkpt>
      <trkpt lat="43.23746" lon="6.35944">
        <ele>340.79998779297</ele>
        <time>2013-08-15T06:11:26Z</time>
      </trkpt>
      <trkpt lat="43.23747" lon="6.35942">
        <ele>340.60000610352</ele>
        <time>2013-08-15T06:11:27Z</time>
      </trkpt>
      <trkpt lat="43.23747" lon="6.35941">
        <ele>340.60000610352</ele>
        <time>2013-08-15T06:11:28Z</time>
      </trkpt>
      <trkpt lat="43.23747" lon="6.35939">
        <ele>340.39999389648</ele>
        <time>2013-08-15T06:11:29Z</time>
      </trkpt>
      <trkpt lat="43.23747" lon="6.35912">
        <ele>337.39999389648</ele>
        <time>2013-08-15T06:11:45Z</time>
      </trkpt>
      <trkpt lat="43.23748" lon="6.35903">
        <ele>337.39999389648</ele>
        <time>2013-08-15T06:11:51Z</time>
      </trkpt>
      <trkpt lat="43.2376" lon="6.35882">
        <ele>340.60000610352</ele>
        <time>2013-08-15T06:12:07Z</time>
      </trkpt>
      <trkpt lat="43.23767" lon="6.35865">
        <ele>342.39999389648</ele>
        <time>2013-08-15T06:12:19Z</time>
      </trkpt>
      <trkpt lat="43.23769" lon="6.35861">
        <ele>342.79998779297</ele>
        <time>2013-08-15T06:12:22Z</time>
      </trkpt>
      <trkpt lat="43.23776" lon="6.3583">
        <ele>344.20001220703</ele>
        <time>2013-08-15T06:12:41Z</time>
      </trkpt>
      <trkpt lat="43.23776" lon="6.35803">
        <ele>344.20001220703</ele>
        <time>2013-08-15T06:12:57Z</time>
      </trkpt>
      <trkpt lat="43.23775" lon="6.35798">
        <ele>344</ele>
        <time>2013-08-15T06:13:00Z</time>
      </trkpt>
      <trkpt lat="43.23775" lon="6.35796">
        <ele>344</ele>
        <time>2013-08-15T06:13:01Z</time>
      </trkpt>
      <trkpt lat="43.23776" lon="6.35794">
        <ele>344.20001220703</ele>
        <time>2013-08-15T06:13:02Z</time>
      </trkpt>
      <trkpt lat="43.23777" lon="6.35793">
        <ele>344.20001220703</ele>
        <time>2013-08-15T06:13:03Z</time>
      </trkpt>
      <trkpt lat="43.23777" lon="6.35791">
        <ele>344.39999389648</ele>
        <time>2013-08-15T06:13:04Z</time>
      </trkpt>
      <trkpt lat="43.23777" lon="6.35789">
        <ele>344.39999389648</ele>
        <time>2013-08-15T06:13:05Z</time>
      </trkpt>
      <trkpt lat="43.23776" lon="6.35788">
        <ele>344.20001220703</ele>
        <time>2013-08-15T06:13:06Z</time>
      </trkpt>
      <trkpt lat="43.23776" lon="6.35786">
        <ele>344.20001220703</ele>
        <time>2013-08-15T06:13:07Z</time>
      </trkpt>
      <trkpt lat="43.23775" lon="6.35784">
        <ele>344</ele>
        <time>2013-08-15T06:13:08Z</time>
      </trkpt>
      <trkpt lat="43.23781" lon="6.3576">
        <ele>345</ele>
        <time>2013-08-15T06:13:24Z</time>
      </trkpt>
      <trkpt lat="43.2379" lon="6.35745">
        <ele>346.79998779297</ele>
        <time>2013-08-15T06:13:37Z</time>
      </trkpt>
      <trkpt lat="43.23791" lon="6.35743">
        <ele>347.20001220703</ele>
        <time>2013-08-15T06:13:39Z</time>
      </trkpt>
      <trkpt lat="43.23792" lon="6.35741">
        <ele>347.39999389648</ele>
        <time>2013-08-15T06:13:40Z</time>
      </trkpt>
      <trkpt lat="43.23793" lon="6.3574">
        <ele>347.60000610352</ele>
        <time>2013-08-15T06:13:41Z</time>
      </trkpt>
      <trkpt lat="43.23812" lon="6.35727">
        <ele>351</ele>
        <time>2013-08-15T06:13:58Z</time>
      </trkpt>
      <trkpt lat="43.23826" lon="6.35714">
        <ele>353.39999389648</ele>
        <time>2013-08-15T06:14:11Z</time>
      </trkpt>
      <trkpt lat="43.23817" lon="6.35695">
        <ele>352.79998779297</ele>
        <time>2013-08-15T06:14:24Z</time>
      </trkpt>
      <trkpt lat="43.23799" lon="6.35676">
        <ele>351.60000610352</ele>
        <time>2013-08-15T06:14:40Z</time>
      </trkpt>
      <trkpt lat="43.2379" lon="6.35657">
        <ele>351.79998779297</ele>
        <time>2013-08-15T06:14:54Z</time>
      </trkpt>
      <trkpt lat="43.2379" lon="6.35653">
        <ele>352</ele>
        <time>2013-08-15T06:14:57Z</time>
      </trkpt>
      <trkpt lat="43.23789" lon="6.35652">
        <ele>352.20001220703</ele>
        <time>2013-08-15T06:14:58Z</time>
      </trkpt>
      <trkpt lat="43.23789" lon="6.35641">
        <ele>352.79998779297</ele>
        <time>2013-08-15T06:15:05Z</time>
      </trkpt>
      <trkpt lat="43.23791" lon="6.35629">
        <ele>353.60000610352</ele>
        <time>2013-08-15T06:15:16Z</time>
      </trkpt>
      <trkpt lat="43.23794" lon="6.35623">
        <ele>354</ele>
        <time>2013-08-15T06:15:21Z</time>
      </trkpt>
      <trkpt lat="43.23795" lon="6.35622">
        <ele>354.20001220703</ele>
        <time>2013-08-15T06:15:22Z</time>
      </trkpt>
      <trkpt lat="43.23805" lon="6.35621">
        <ele>354.20001220703</ele>
        <time>2013-08-15T06:15:37Z</time>
      </trkpt>
      <trkpt lat="43.23807" lon="6.35625">
        <ele>354</ele>
        <time>2013-08-15T06:15:51Z</time>
      </trkpt>
      <trkpt lat="43.23814" lon="6.35615">
        <ele>354.39999389648</ele>
        <time>2013-08-15T06:16:03Z</time>
      </trkpt>
      <trkpt lat="43.23823" lon="6.35614">
        <ele>354.39999389648</ele>
        <time>2013-08-15T06:16:16Z</time>
      </trkpt>
      <trkpt lat="43.23835" lon="6.35618">
        <ele>354.60000610352</ele>
        <time>2013-08-15T06:16:31Z</time>
      </trkpt>
      <trkpt lat="43.23837" lon="6.3562">
        <ele>354.79998779297</ele>
        <time>2013-08-15T06:16:49Z</time>
      </trkpt>
      <trkpt lat="43.23838" lon="6.3562">
        <ele>355</ele>
        <time>2013-08-15T06:16:50Z</time>
      </trkpt>
      <trkpt lat="43.23846" lon="6.35622">
        <ele>356</ele>
        <time>2013-08-15T06:16:58Z</time>
      </trkpt>
      <trkpt lat="43.23855" lon="6.35625">
        <ele>357</ele>
        <time>2013-08-15T06:17:08Z</time>
      </trkpt>
      <trkpt lat="43.23869" lon="6.35629">
        <ele>358.79998779297</ele>
        <time>2013-08-15T06:17:23Z</time>
      </trkpt>
      <trkpt lat="43.23881" lon="6.35622">
        <ele>360</ele>
        <time>2013-08-15T06:17:38Z</time>
      </trkpt>
      <trkpt lat="43.23897" lon="6.35626">
        <ele>362</ele>
        <time>2013-08-15T06:17:54Z</time>
      </trkpt>
      <trkpt lat="43.23897" lon="6.35627">
        <ele>362.20001220703</ele>
        <time>2013-08-15T06:17:55Z</time>
      </trkpt>
      <trkpt lat="43.239" lon="6.35638">
        <ele>363.20001220703</ele>
        <time>2013-08-15T06:18:06Z</time>
      </trkpt>
      <trkpt lat="43.23901" lon="6.3564">
        <ele>363.20001220703</ele>
        <time>2013-08-15T06:18:07Z</time>
      </trkpt>
      <trkpt lat="43.23901" lon="6.35642">
        <ele>363.39999389648</ele>
        <time>2013-08-15T06:18:08Z</time>
      </trkpt>
      <trkpt lat="43.23899" lon="6.35648">
        <ele>363.39999389648</ele>
        <time>2013-08-15T06:18:14Z</time>
      </trkpt>
      <trkpt lat="43.23898" lon="6.35649">
        <ele>363.39999389648</ele>
        <time>2013-08-15T06:18:15Z</time>
      </trkpt>
      <trkpt lat="43.23897" lon="6.3565">
        <ele>363.20001220703</ele>
        <time>2013-08-15T06:18:16Z</time>
      </trkpt>
      <trkpt lat="43.23897" lon="6.35651">
        <ele>363.20001220703</ele>
        <time>2013-08-15T06:18:17Z</time>
      </trkpt>
      <trkpt lat="43.23896" lon="6.35652">
        <ele>363.20001220703</ele>
        <time>2013-08-15T06:18:18Z</time>
      </trkpt>
      <trkpt lat="43.23894" lon="6.35654">
        <ele>363</ele>
        <time>2013-08-15T06:18:20Z</time>
      </trkpt>
      <trkpt lat="43.23894" lon="6.35661">
        <ele>363.39999389648</ele>
        <time>2013-08-15T06:18:25Z</time>
      </trkpt>
      <trkpt lat="43.23901" lon="6.35671">
        <ele>364.60000610352</ele>
        <time>2013-08-15T06:18:36Z</time>
      </trkpt>
      <trkpt lat="43.23912" lon="6.35677">
        <ele>366.39999389648</ele>
        <time>2013-08-15T06:18:50Z</time>
      </trkpt>
      <trkpt lat="43.23922" lon="6.35684">
        <ele>367.79998779297</ele>
        <time>2013-08-15T06:19:03Z</time>
      </trkpt>
      <trkpt lat="43.23936" lon="6.35688">
        <ele>369.20001220703</ele>
        <time>2013-08-15T06:19:17Z</time>
      </trkpt>
      <trkpt lat="43.23945" lon="6.35693">
        <ele>370.39999389648</ele>
        <time>2013-08-15T06:19:26Z</time>
      </trkpt>
      <trkpt lat="43.23946" lon="6.35694">
        <ele>370.39999389648</ele>
        <time>2013-08-15T06:19:27Z</time>
      </trkpt>
      <trkpt lat="43.23947" lon="6.35695">
        <ele>370.60000610352</ele>
        <time>2013-08-15T06:19:28Z</time>
      </trkpt>
      <trkpt lat="43.23955" lon="6.35707">
        <ele>372</ele>
        <time>2013-08-15T06:19:41Z</time>
      </trkpt>
      <trkpt lat="43.23966" lon="6.35725">
        <ele>374</ele>
        <time>2013-08-15T06:19:55Z</time>
      </trkpt>
      <trkpt lat="43.2397" lon="6.35735">
        <ele>375.20001220703</ele>
        <time>2013-08-15T06:20:07Z</time>
      </trkpt>
      <trkpt lat="43.23975" lon="6.35744">
        <ele>376.20001220703</ele>
        <time>2013-08-15T06:20:16Z</time>
      </trkpt>
      <trkpt lat="43.23981" lon="6.35754">
        <ele>377.79998779297</ele>
        <time>2013-08-15T06:20:28Z</time>
      </trkpt>
      <trkpt lat="43.23988" lon="6.35769">
        <ele>380</ele>
        <time>2013-08-15T06:20:41Z</time>
      </trkpt>
      <trkpt lat="43.23994" lon="6.3578">
        <ele>381.60000610352</ele>
        <time>2013-08-15T06:20:53Z</time>
      </trkpt>
      <trkpt lat="43.23998" lon="6.35788">
        <ele>382.79998779297</ele>
        <time>2013-08-15T06:21:06Z</time>
      </trkpt>
      <trkpt lat="43.24002" lon="6.35799">
        <ele>384</ele>
        <time>2013-08-15T06:21:18Z</time>
      </trkpt>
      <trkpt lat="43.2401" lon="6.3581">
        <ele>385.39999389648</ele>
        <time>2013-08-15T06:21:30Z</time>
      </trkpt>
      <trkpt lat="43.24016" lon="6.35821">
        <ele>387</ele>
        <time>2013-08-15T06:21:45Z</time>
      </trkpt>
      <trkpt lat="43.24024" lon="6.35836">
        <ele>389.20001220703</ele>
        <time>2013-08-15T06:22:01Z</time>
      </trkpt>
      <trkpt lat="43.24033" lon="6.35844">
        <ele>391.39999389648</ele>
        <time>2013-08-15T06:22:15Z</time>
      </trkpt>
      <trkpt lat="43.24034" lon="6.3585">
        <ele>392.39999389648</ele>
        <time>2013-08-15T06:22:24Z</time>
      </trkpt>
      <trkpt lat="43.24034" lon="6.35858">
        <ele>393.60000610352</ele>
        <time>2013-08-15T06:22:34Z</time>
      </trkpt>
      <trkpt lat="43.24038" lon="6.35865">
        <ele>395.20001220703</ele>
        <time>2013-08-15T06:22:45Z</time>
      </trkpt>
      <trkpt lat="43.24042" lon="6.3587">
        <ele>396.39999389648</ele>
        <time>2013-08-15T06:22:58Z</time>
      </trkpt>
      <trkpt lat="43.24046" lon="6.35878">
        <ele>398.20001220703</ele>
        <time>2013-08-15T06:23:11Z</time>
      </trkpt>
      <trkpt lat="43.2405" lon="6.35885">
        <ele>399.79998779297</ele>
        <time>2013-08-15T06:23:21Z</time>
      </trkpt>
      <trkpt lat="43.24053" lon="6.35889">
        <ele>401</ele>
        <time>2013-08-15T06:23:29Z</time>
      </trkpt>
      <trkpt lat="43.24055" lon="6.35893">
        <ele>402</ele>
        <time>2013-08-15T06:23:35Z</time>
      </trkpt>
      <trkpt lat="43.24057" lon="6.35896">
        <ele>402.79998779297</ele>
        <time>2013-08-15T06:23:39Z</time>
      </trkpt>
      <trkpt lat="43.24058" lon="6.35905">
        <ele>404.60000610352</ele>
        <time>2013-08-15T06:23:54Z</time>
      </trkpt>
      <trkpt lat="43.24062" lon="6.35916">
        <ele>407.20001220703</ele>
        <time>2013-08-15T06:24:06Z</time>
      </trkpt>
      <trkpt lat="43.24065" lon="6.35924">
        <ele>408.79998779297</ele>
        <time>2013-08-15T06:24:19Z</time>
      </trkpt>
      <trkpt lat="43.24068" lon="6.35932">
        <ele>410.39999389648</ele>
        <time>2013-08-15T06:24:31Z</time>
      </trkpt>
      <trkpt lat="43.24072" lon="6.35941">
        <ele>412.20001220703</ele>
        <time>2013-08-15T06:24:43Z</time>
      </trkpt>
      <trkpt lat="43.24077" lon="6.35954">
        <ele>414.79998779297</ele>
        <time>2013-08-15T06:24:57Z</time>
      </trkpt>
      <trkpt lat="43.24084" lon="6.35969">
        <ele>417.79998779297</ele>
        <time>2013-08-15T06:25:13Z</time>
      </trkpt>
      <trkpt lat="43.2409" lon="6.35982">
        <ele>419</ele>
        <time>2013-08-15T06:25:27Z</time>
      </trkpt>
      <trkpt lat="43.24095" lon="6.35993">
        <ele>420.20001220703</ele>
        <time>2013-08-15T06:25:39Z</time>
      </trkpt>
      <trkpt lat="43.24101" lon="6.36006">
        <ele>421.60000610352</ele>
        <time>2013-08-15T06:25:52Z</time>
      </trkpt>
      <trkpt lat="43.24105" lon="6.36014">
        <ele>422.20001220703</ele>
        <time>2013-08-15T06:25:59Z</time>
      </trkpt>
      <trkpt lat="43.24109" lon="6.36029">
        <ele>423.60000610352</ele>
        <time>2013-08-15T06:26:12Z</time>
      </trkpt>
      <trkpt lat="43.24112" lon="6.36038">
        <ele>424.39999389648</ele>
        <time>2013-08-15T06:26:20Z</time>
      </trkpt>
      <trkpt lat="43.24115" lon="6.36044">
        <ele>425</ele>
        <time>2013-08-15T06:26:25Z</time>
      </trkpt>
      <trkpt lat="43.24123" lon="6.36059">
        <ele>426.60000610352</ele>
        <time>2013-08-15T06:26:39Z</time>
      </trkpt>
      <trkpt lat="43.24128" lon="6.36075">
        <ele>428.39999389648</ele>
        <time>2013-08-15T06:26:54Z</time>
      </trkpt>
      <trkpt lat="43.24134" lon="6.36088">
        <ele>429.39999389648</ele>
        <time>2013-08-15T06:27:06Z</time>
      </trkpt>
      <trkpt lat="43.24135" lon="6.36088">
        <ele>429.39999389648</ele>
        <time>2013-08-15T06:27:07Z</time>
      </trkpt>
      <trkpt lat="43.24146" lon="6.36092">
        <ele>429.60000610352</ele>
        <time>2013-08-15T06:27:21Z</time>
      </trkpt>
      <trkpt lat="43.24156" lon="6.36092">
        <ele>429.39999389648</ele>
        <time>2013-08-15T06:27:36Z</time>
      </trkpt>
      <trkpt lat="43.24162" lon="6.36093">
        <ele>429.39999389648</ele>
        <time>2013-08-15T06:28:02Z</time>
      </trkpt>
      <trkpt lat="43.2417" lon="6.36092">
        <ele>428.60000610352</ele>
        <time>2013-08-15T06:28:22Z</time>
      </trkpt>
      <trkpt lat="43.24181" lon="6.3609">
        <ele>425.79998779297</ele>
        <time>2013-08-15T06:28:38Z</time>
      </trkpt>
      <trkpt lat="43.2419" lon="6.36089">
        <ele>423.39999389648</ele>
        <time>2013-08-15T06:28:53Z</time>
      </trkpt>
      <trkpt lat="43.24194" lon="6.36086">
        <ele>422.60000610352</ele>
        <time>2013-08-15T06:29:09Z</time>
      </trkpt>
      <trkpt lat="43.24203" lon="6.36085">
        <ele>420.20001220703</ele>
        <time>2013-08-15T06:29:24Z</time>
      </trkpt>
      <trkpt lat="43.2421" lon="6.36084">
        <ele>418.60000610352</ele>
        <time>2013-08-15T06:29:35Z</time>
      </trkpt>
      <trkpt lat="43.24219" lon="6.36084">
        <ele>416.39999389648</ele>
        <time>2013-08-15T06:29:45Z</time>
      </trkpt>
      <trkpt lat="43.2422" lon="6.36084">
        <ele>416</ele>
        <time>2013-08-15T06:29:46Z</time>
      </trkpt>
      <trkpt lat="43.24222" lon="6.36085">
        <ele>415.79998779297</ele>
        <time>2013-08-15T06:29:47Z</time>
      </trkpt>
      <trkpt lat="43.24229" lon="6.36086">
        <ele>414.20001220703</ele>
        <time>2013-08-15T06:29:58Z</time>
      </trkpt>
      <trkpt lat="43.24236" lon="6.36085">
        <ele>412.39999389648</ele>
        <time>2013-08-15T06:30:13Z</time>
      </trkpt>
      <trkpt lat="43.24243" lon="6.36086">
        <ele>410.79998779297</ele>
        <time>2013-08-15T06:30:27Z</time>
      </trkpt>
      <trkpt lat="43.24253" lon="6.36087">
        <ele>408.60000610352</ele>
        <time>2013-08-15T06:30:43Z</time>
      </trkpt>
      <trkpt lat="43.2426" lon="6.36089">
        <ele>406.79998779297</ele>
        <time>2013-08-15T06:30:56Z</time>
      </trkpt>
      <trkpt lat="43.24269" lon="6.36089">
        <ele>404.79998779297</ele>
        <time>2013-08-15T06:31:08Z</time>
      </trkpt>
      <trkpt lat="43.24277" lon="6.36092">
        <ele>403.20001220703</ele>
        <time>2013-08-15T06:31:22Z</time>
      </trkpt>
      <trkpt lat="43.24284" lon="6.36092">
        <ele>401.60000610352</ele>
        <time>2013-08-15T06:31:36Z</time>
      </trkpt>
      <trkpt lat="43.24294" lon="6.36092">
        <ele>399.20001220703</ele>
        <time>2013-08-15T06:31:51Z</time>
      </trkpt>
      <trkpt lat="43.24299" lon="6.36092">
        <ele>398.20001220703</ele>
        <time>2013-08-15T06:31:58Z</time>
      </trkpt>
      <trkpt lat="43.24306" lon="6.36092">
        <ele>396.39999389648</ele>
        <time>2013-08-15T06:32:08Z</time>
      </trkpt>
      <trkpt lat="43.2431" lon="6.36096">
        <ele>395.60000610352</ele>
        <time>2013-08-15T06:32:15Z</time>
      </trkpt>
      <trkpt lat="43.24317" lon="6.36102">
        <ele>394.20001220703</ele>
        <time>2013-08-15T06:32:27Z</time>
      </trkpt>
      <trkpt lat="43.2432" lon="6.3611">
        <ele>393.79998779297</ele>
        <time>2013-08-15T06:32:36Z</time>
      </trkpt>
      <trkpt lat="43.24325" lon="6.36121">
        <ele>392.79998779297</ele>
        <time>2013-08-15T06:32:44Z</time>
      </trkpt>
      <trkpt lat="43.24331" lon="6.36126">
        <ele>391.60000610352</ele>
        <time>2013-08-15T06:32:54Z</time>
      </trkpt>
      <trkpt lat="43.24335" lon="6.36125">
        <ele>391.20001220703</ele>
        <time>2013-08-15T06:32:59Z</time>
      </trkpt>
      <trkpt lat="43.24338" lon="6.36137">
        <ele>392</ele>
        <time>2013-08-15T06:33:10Z</time>
      </trkpt>
      <trkpt lat="43.24331" lon="6.36143">
        <ele>392</ele>
        <time>2013-08-15T06:33:18Z</time>
      </trkpt>
      <trkpt lat="43.24328" lon="6.36156">
        <ele>393</ele>
        <time>2013-08-15T06:33:30Z</time>
      </trkpt>
      <trkpt lat="43.24325" lon="6.36162">
        <ele>394</ele>
        <time>2013-08-15T06:33:44Z</time>
      </trkpt>
      <trkpt lat="43.24324" lon="6.36164">
        <ele>394.20001220703</ele>
        <time>2013-08-15T06:33:45Z</time>
      </trkpt>
      <trkpt lat="43.24324" lon="6.36166">
        <ele>394.20001220703</ele>
        <time>2013-08-15T06:33:58Z</time>
      </trkpt>
      <trkpt lat="43.24327" lon="6.36175">
        <ele>393</ele>
        <time>2013-08-15T06:34:10Z</time>
      </trkpt>
      <trkpt lat="43.24332" lon="6.36188">
        <ele>390.60000610352</ele>
        <time>2013-08-15T06:34:21Z</time>
      </trkpt>
      <trkpt lat="43.24337" lon="6.36199">
        <ele>390.20001220703</ele>
        <time>2013-08-15T06:34:29Z</time>
      </trkpt>
      <trkpt lat="43.24338" lon="6.36204">
        <ele>390.20001220703</ele>
        <time>2013-08-15T06:34:31Z</time>
      </trkpt>
      <trkpt lat="43.24339" lon="6.36212">
        <ele>389.79998779297</ele>
        <time>2013-08-15T06:34:38Z</time>
      </trkpt>
      <trkpt lat="43.24339" lon="6.36215">
        <ele>389.60000610352</ele>
        <time>2013-08-15T06:34:39Z</time>
      </trkpt>
      <trkpt lat="43.24339" lon="6.36217">
        <ele>389.60000610352</ele>
        <time>2013-08-15T06:34:40Z</time>
      </trkpt>
      <trkpt lat="43.2434" lon="6.36222">
        <ele>389.20001220703</ele>
        <time>2013-08-15T06:34:45Z</time>
      </trkpt>
      <trkpt lat="43.2434" lon="6.36224">
        <ele>389.20001220703</ele>
        <time>2013-08-15T06:34:46Z</time>
      </trkpt>
      <trkpt lat="43.24342" lon="6.3624">
        <ele>388.60000610352</ele>
        <time>2013-08-15T06:34:56Z</time>
      </trkpt>
      <trkpt lat="43.24338" lon="6.3625">
        <ele>387</ele>
        <time>2013-08-15T06:35:04Z</time>
      </trkpt>
      <trkpt lat="43.24338" lon="6.36253">
        <ele>386.79998779297</ele>
        <time>2013-08-15T06:35:05Z</time>
      </trkpt>
      <trkpt lat="43.24338" lon="6.36255">
        <ele>386.79998779297</ele>
        <time>2013-08-15T06:35:06Z</time>
      </trkpt>
      <trkpt lat="43.24338" lon="6.36256">
        <ele>386.60000610352</ele>
        <time>2013-08-15T06:35:07Z</time>
      </trkpt>
      <trkpt lat="43.24334" lon="6.36263">
        <ele>385.60000610352</ele>
        <time>2013-08-15T06:35:17Z</time>
      </trkpt>
      <trkpt lat="43.24333" lon="6.36264">
        <ele>385.39999389648</ele>
        <time>2013-08-15T06:35:24Z</time>
      </trkpt>
      <trkpt lat="43.24335" lon="6.3629">
        <ele>384.60000610352</ele>
        <time>2013-08-15T06:35:38Z</time>
      </trkpt>
      <trkpt lat="43.24335" lon="6.36295">
        <ele>384.60000610352</ele>
        <time>2013-08-15T06:35:42Z</time>
      </trkpt>
      <trkpt lat="43.24335" lon="6.36321">
        <ele>383.60000610352</ele>
        <time>2013-08-15T06:35:57Z</time>
      </trkpt>
      <trkpt lat="43.24335" lon="6.36335">
        <ele>383</ele>
        <time>2013-08-15T06:36:06Z</time>
      </trkpt>
      <trkpt lat="43.24336" lon="6.36337">
        <ele>383</ele>
        <time>2013-08-15T06:36:08Z</time>
      </trkpt>
      <trkpt lat="43.24337" lon="6.36351">
        <ele>382</ele>
        <time>2013-08-15T06:36:17Z</time>
      </trkpt>
      <trkpt lat="43.24338" lon="6.36354">
        <ele>382</ele>
        <time>2013-08-15T06:36:19Z</time>
      </trkpt>
      <trkpt lat="43.24339" lon="6.36372">
        <ele>380.60000610352</ele>
        <time>2013-08-15T06:36:30Z</time>
      </trkpt>
      <trkpt lat="43.24338" lon="6.3638">
        <ele>379.79998779297</ele>
        <time>2013-08-15T06:36:35Z</time>
      </trkpt>
      <trkpt lat="43.24341" lon="6.36398">
        <ele>378.60000610352</ele>
        <time>2013-08-15T06:36:47Z</time>
      </trkpt>
      <trkpt lat="43.24343" lon="6.36405">
        <ele>378.39999389648</ele>
        <time>2013-08-15T06:36:51Z</time>
      </trkpt>
      <trkpt lat="43.24341" lon="6.3642">
        <ele>377</ele>
        <time>2013-08-15T06:37:01Z</time>
      </trkpt>
      <trkpt lat="43.2434" lon="6.36425">
        <ele>376.39999389648</ele>
        <time>2013-08-15T06:37:04Z</time>
      </trkpt>
      <trkpt lat="43.2434" lon="6.36429">
        <ele>376.20001220703</ele>
        <time>2013-08-15T06:37:07Z</time>
      </trkpt>
      <trkpt lat="43.24341" lon="6.36435">
        <ele>375.79998779297</ele>
        <time>2013-08-15T06:37:11Z</time>
      </trkpt>
      <trkpt lat="43.24338" lon="6.36459">
        <ele>373.60000610352</ele>
        <time>2013-08-15T06:37:25Z</time>
      </trkpt>
      <trkpt lat="43.24337" lon="6.36464">
        <ele>373</ele>
        <time>2013-08-15T06:37:28Z</time>
      </trkpt>
      <trkpt lat="43.24338" lon="6.36473">
        <ele>372.60000610352</ele>
        <time>2013-08-15T06:37:45Z</time>
      </trkpt>
      <trkpt lat="43.24334" lon="6.36482">
        <ele>371.20001220703</ele>
        <time>2013-08-15T06:37:58Z</time>
      </trkpt>
      <trkpt lat="43.24332" lon="6.36485">
        <ele>371.20001220703</ele>
        <time>2013-08-15T06:38:09Z</time>
      </trkpt>
      <trkpt lat="43.24327" lon="6.36491">
        <ele>371.60000610352</ele>
        <time>2013-08-15T06:38:21Z</time>
      </trkpt>
      <trkpt lat="43.2433" lon="6.36489">
        <ele>371.20001220703</ele>
        <time>2013-08-15T06:38:39Z</time>
      </trkpt>
      <trkpt lat="43.24335" lon="6.36488">
        <ele>371</ele>
        <time>2013-08-15T06:38:53Z</time>
      </trkpt>
      <trkpt lat="43.24337" lon="6.36493">
        <ele>371</ele>
        <time>2013-08-15T06:39:00Z</time>
      </trkpt>
      <trkpt lat="43.24338" lon="6.36494">
        <ele>371</ele>
        <time>2013-08-15T06:39:01Z</time>
      </trkpt>
      <trkpt lat="43.24338" lon="6.365">
        <ele>370.60000610352</ele>
        <time>2013-08-15T06:39:13Z</time>
      </trkpt>
      <trkpt lat="43.24343" lon="6.36505">
        <ele>370.79998779297</ele>
        <time>2013-08-15T06:39:26Z</time>
      </trkpt>
      <trkpt lat="43.24349" lon="6.36508">
        <ele>371.60000610352</ele>
        <time>2013-08-15T06:39:38Z</time>
      </trkpt>
      <trkpt lat="43.24357" lon="6.3651">
        <ele>372.39999389648</ele>
        <time>2013-08-15T06:39:50Z</time>
      </trkpt>
      <trkpt lat="43.24362" lon="6.36511">
        <ele>373</ele>
        <time>2013-08-15T06:40:01Z</time>
      </trkpt>
      <trkpt lat="43.24368" lon="6.36508">
        <ele>374.20001220703</ele>
        <time>2013-08-15T06:40:15Z</time>
      </trkpt>
      <trkpt lat="43.24372" lon="6.36502">
        <ele>375.39999389648</ele>
        <time>2013-08-15T06:40:30Z</time>
      </trkpt>
      <trkpt lat="43.24377" lon="6.36505">
        <ele>375.79998779297</ele>
        <time>2013-08-15T06:40:43Z</time>
      </trkpt>
      <trkpt lat="43.24381" lon="6.36513">
        <ele>375.79998779297</ele>
        <time>2013-08-15T06:40:54Z</time>
      </trkpt>
      <trkpt lat="43.24383" lon="6.36527">
        <ele>374.79998779297</ele>
        <time>2013-08-15T06:41:05Z</time>
      </trkpt>
      <trkpt lat="43.24385" lon="6.36528">
        <ele>374.79998779297</ele>
        <time>2013-08-15T06:41:18Z</time>
      </trkpt>
      <trkpt lat="43.24383" lon="6.36518">
        <ele>375.39999389648</ele>
        <time>2013-08-15T06:41:34Z</time>
      </trkpt>
      <trkpt lat="43.2438" lon="6.36508">
        <ele>376</ele>
        <time>2013-08-15T06:41:45Z</time>
      </trkpt>
      <trkpt lat="43.24377" lon="6.36501">
        <ele>376</ele>
        <time>2013-08-15T06:41:56Z</time>
      </trkpt>
      <trkpt lat="43.24369" lon="6.36503">
        <ele>374.79998779297</ele>
        <time>2013-08-15T06:42:11Z</time>
      </trkpt>
      <trkpt lat="43.24365" lon="6.36509">
        <ele>373.79998779297</ele>
        <time>2013-08-15T06:42:23Z</time>
      </trkpt>
      <trkpt lat="43.24362" lon="6.36509">
        <ele>373.39999389648</ele>
        <time>2013-08-15T06:42:35Z</time>
      </trkpt>
      <trkpt lat="43.24354" lon="6.36508">
        <ele>372.39999389648</ele>
        <time>2013-08-15T06:42:46Z</time>
      </trkpt>
      <trkpt lat="43.24348" lon="6.36505">
        <ele>371.60000610352</ele>
        <time>2013-08-15T06:42:59Z</time>
      </trkpt>
      <trkpt lat="43.24348" lon="6.36506">
        <ele>371.60000610352</ele>
        <time>2013-08-15T06:43:16Z</time>
      </trkpt>
      <trkpt lat="43.24343" lon="6.36504">
        <ele>371</ele>
        <time>2013-08-15T06:43:37Z</time>
      </trkpt>
      <trkpt lat="43.24342" lon="6.36503">
        <ele>371</ele>
        <time>2013-08-15T06:43:56Z</time>
      </trkpt>
      <trkpt lat="43.24337" lon="6.36492">
        <ele>371</ele>
        <time>2013-08-15T06:44:10Z</time>
      </trkpt>
      <trkpt lat="43.24333" lon="6.36485">
        <ele>371</ele>
        <time>2013-08-15T06:44:22Z</time>
      </trkpt>
      <trkpt lat="43.24327" lon="6.36489">
        <ele>371.60000610352</ele>
        <time>2013-08-15T06:44:32Z</time>
      </trkpt>
      <trkpt lat="43.24324" lon="6.36494">
        <ele>371.60000610352</ele>
        <time>2013-08-15T06:44:47Z</time>
      </trkpt>
      <trkpt lat="43.24328" lon="6.36495">
        <ele>371</ele>
        <time>2013-08-15T06:44:59Z</time>
      </trkpt>
      <trkpt lat="43.2433" lon="6.36494">
        <ele>370.79998779297</ele>
        <time>2013-08-15T06:45:11Z</time>
      </trkpt>
      <trkpt lat="43.24331" lon="6.36496">
        <ele>370.39999389648</ele>
        <time>2013-08-15T06:45:24Z</time>
      </trkpt>
      <trkpt lat="43.24331" lon="6.36498">
        <ele>370.39999389648</ele>
        <time>2013-08-15T06:45:30Z</time>
      </trkpt>
      <trkpt lat="43.24328" lon="6.36509">
        <ele>369.79998779297</ele>
        <time>2013-08-15T06:45:45Z</time>
      </trkpt>
      <trkpt lat="43.24329" lon="6.36522">
        <ele>368.79998779297</ele>
        <time>2013-08-15T06:46:00Z</time>
      </trkpt>
      <trkpt lat="43.24331" lon="6.36539">
        <ele>367.20001220703</ele>
        <time>2013-08-15T06:46:15Z</time>
      </trkpt>
      <trkpt lat="43.24331" lon="6.36542">
        <ele>367</ele>
        <time>2013-08-15T06:46:27Z</time>
      </trkpt>
      <trkpt lat="43.24326" lon="6.36551">
        <ele>366.79998779297</ele>
        <time>2013-08-15T06:46:42Z</time>
      </trkpt>
      <trkpt lat="43.24324" lon="6.36552">
        <ele>366.79998779297</ele>
        <time>2013-08-15T06:46:58Z</time>
      </trkpt>
      <trkpt lat="43.24325" lon="6.36558">
        <ele>366.20001220703</ele>
        <time>2013-08-15T06:47:21Z</time>
      </trkpt>
      <trkpt lat="43.24319" lon="6.36564">
        <ele>366.20001220703</ele>
        <time>2013-08-15T06:47:38Z</time>
      </trkpt>
      <trkpt lat="43.24316" lon="6.36578">
        <ele>365</ele>
        <time>2013-08-15T06:47:57Z</time>
      </trkpt>
      <trkpt lat="43.24316" lon="6.36578">
        <ele>365</ele>
        <time>2013-08-15T06:48:16Z</time>
      </trkpt>
      <trkpt lat="43.24313" lon="6.3658">
        <ele>365</ele>
        <time>2013-08-15T06:48:42Z</time>
      </trkpt>
      <trkpt lat="43.24325" lon="6.36584">
        <ele>364.20001220703</ele>
        <time>2013-08-15T06:49:11Z</time>
      </trkpt>
      <trkpt lat="43.24321" lon="6.3659">
        <ele>363.79998779297</ele>
        <time>2013-08-15T06:49:30Z</time>
      </trkpt>
      <trkpt lat="43.24316" lon="6.36596">
        <ele>363.39999389648</ele>
        <time>2013-08-15T06:49:54Z</time>
      </trkpt>
      <trkpt lat="43.24315" lon="6.36598">
        <ele>363.39999389648</ele>
        <time>2013-08-15T06:50:12Z</time>
      </trkpt>
      <trkpt lat="43.2432" lon="6.3658">
        <ele>364.79998779297</ele>
        <time>2013-08-15T06:50:31Z</time>
      </trkpt>
      <trkpt lat="43.24324" lon="6.36567">
        <ele>365.60000610352</ele>
        <time>2013-08-15T06:50:50Z</time>
      </trkpt>
      <trkpt lat="43.24328" lon="6.36579">
        <ele>364.39999389648</ele>
        <time>2013-08-15T06:51:10Z</time>
      </trkpt>
      <trkpt lat="43.24326" lon="6.36598">
        <ele>363</ele>
        <time>2013-08-15T06:51:32Z</time>
      </trkpt>
      <trkpt lat="43.24317" lon="6.36602">
        <ele>363</ele>
        <time>2013-08-15T06:51:54Z</time>
      </trkpt>
      <trkpt lat="43.24314" lon="6.36608">
        <ele>362.60000610352</ele>
        <time>2013-08-15T06:52:00Z</time>
      </trkpt>
      <trkpt lat="43.24298" lon="6.36619">
        <ele>361.60000610352</ele>
        <time>2013-08-15T06:52:18Z</time>
      </trkpt>
      <trkpt lat="43.24295" lon="6.36631">
        <ele>360.39999389648</ele>
        <time>2013-08-15T06:52:34Z</time>
      </trkpt>
      <trkpt lat="43.24289" lon="6.36643">
        <ele>359.39999389648</ele>
        <time>2013-08-15T06:52:50Z</time>
      </trkpt>
      <trkpt lat="43.24284" lon="6.36648">
        <ele>358.60000610352</ele>
        <time>2013-08-15T06:53:03Z</time>
      </trkpt>
      <trkpt lat="43.24281" lon="6.36664">
        <ele>357</ele>
        <time>2013-08-15T06:53:18Z</time>
      </trkpt>
      <trkpt lat="43.2428" lon="6.3667">
        <ele>357</ele>
        <time>2013-08-15T06:53:35Z</time>
      </trkpt>
      <trkpt lat="43.24275" lon="6.36676">
        <ele>358</ele>
        <time>2013-08-15T06:53:52Z</time>
      </trkpt>
      <trkpt lat="43.24259" lon="6.36677">
        <ele>358</ele>
        <time>2013-08-15T06:54:14Z</time>
      </trkpt>
      <trkpt lat="43.24248" lon="6.36674">
        <ele>357.20001220703</ele>
        <time>2013-08-15T06:54:31Z</time>
      </trkpt>
      <trkpt lat="43.24238" lon="6.3667">
        <ele>355.79998779297</ele>
        <time>2013-08-15T06:54:48Z</time>
      </trkpt>
      <trkpt lat="43.24224" lon="6.36672">
        <ele>355.60000610352</ele>
        <time>2013-08-15T06:55:06Z</time>
      </trkpt>
      <trkpt lat="43.24217" lon="6.36677">
        <ele>356.20001220703</ele>
        <time>2013-08-15T06:55:25Z</time>
      </trkpt>
      <trkpt lat="43.24212" lon="6.36677">
        <ele>356</ele>
        <time>2013-08-15T06:55:41Z</time>
      </trkpt>
      <trkpt lat="43.24204" lon="6.36686">
        <ele>357.39999389648</ele>
        <time>2013-08-15T06:55:53Z</time>
      </trkpt>
      <trkpt lat="43.24201" lon="6.36685">
        <ele>357</ele>
        <time>2013-08-15T06:56:09Z</time>
      </trkpt>
      <trkpt lat="43.24199" lon="6.36691">
        <ele>358</ele>
        <time>2013-08-15T06:56:26Z</time>
      </trkpt>
      <trkpt lat="43.24192" lon="6.36697">
        <ele>358.79998779297</ele>
        <time>2013-08-15T06:56:40Z</time>
      </trkpt>
      <trkpt lat="43.24188" lon="6.36695">
        <ele>358.20001220703</ele>
        <time>2013-08-15T06:57:00Z</time>
      </trkpt>
      <trkpt lat="43.24179" lon="6.36697">
        <ele>358</ele>
        <time>2013-08-15T06:57:14Z</time>
      </trkpt>
      <trkpt lat="43.24177" lon="6.36699">
        <ele>358.20001220703</ele>
        <time>2013-08-15T06:57:28Z</time>
      </trkpt>
      <trkpt lat="43.24171" lon="6.36698">
        <ele>357.60000610352</ele>
        <time>2013-08-15T06:57:40Z</time>
      </trkpt>
      <trkpt lat="43.24164" lon="6.36703">
        <ele>358</ele>
        <time>2013-08-15T06:57:53Z</time>
      </trkpt>
      <trkpt lat="43.24156" lon="6.367">
        <ele>356.39999389648</ele>
        <time>2013-08-15T06:58:06Z</time>
      </trkpt>
      <trkpt lat="43.24154" lon="6.367">
        <ele>356.39999389648</ele>
        <time>2013-08-15T06:58:19Z</time>
      </trkpt>
      <trkpt lat="43.24148" lon="6.36702">
        <ele>355.79998779297</ele>
        <time>2013-08-15T06:58:37Z</time>
      </trkpt>
      <trkpt lat="43.24141" lon="6.36701">
        <ele>354.60000610352</ele>
        <time>2013-08-15T06:58:50Z</time>
      </trkpt>
      <trkpt lat="43.24136" lon="6.36699">
        <ele>353.79998779297</ele>
        <time>2013-08-15T06:58:58Z</time>
      </trkpt>
      <trkpt lat="43.24134" lon="6.36698">
        <ele>353.39999389648</ele>
        <time>2013-08-15T06:59:18Z</time>
      </trkpt>
      <trkpt lat="43.24126" lon="6.367">
        <ele>352.79998779297</ele>
        <time>2013-08-15T06:59:41Z</time>
      </trkpt>
      <trkpt lat="43.2412" lon="6.36699">
        <ele>351.79998779297</ele>
        <time>2013-08-15T06:59:55Z</time>
      </trkpt>
      <trkpt lat="43.24114" lon="6.36694">
        <ele>350.39999389648</ele>
        <time>2013-08-15T07:00:12Z</time>
      </trkpt>
      <trkpt lat="43.2411" lon="6.36694">
        <ele>349.79998779297</ele>
        <time>2013-08-15T07:00:22Z</time>
      </trkpt>
      <trkpt lat="43.24106" lon="6.36685">
        <ele>348.39999389648</ele>
        <time>2013-08-15T07:00:38Z</time>
      </trkpt>
      <trkpt lat="43.24102" lon="6.36688">
        <ele>348.20001220703</ele>
        <time>2013-08-15T07:00:53Z</time>
      </trkpt>
      <trkpt lat="43.24103" lon="6.36681">
        <ele>347.39999389648</ele>
        <time>2013-08-15T07:01:11Z</time>
      </trkpt>
      <trkpt lat="43.24104" lon="6.36677">
        <ele>347</ele>
        <time>2013-08-15T07:01:30Z</time>
      </trkpt>
      <trkpt lat="43.24104" lon="6.36683">
        <ele>347.79998779297</ele>
        <time>2013-08-15T07:01:48Z</time>
      </trkpt>
      <trkpt lat="43.24101" lon="6.36685">
        <ele>347.60000610352</ele>
        <time>2013-08-15T07:02:04Z</time>
      </trkpt>
      <trkpt lat="43.24101" lon="6.36689">
        <ele>348.20001220703</ele>
        <time>2013-08-15T07:02:16Z</time>
      </trkpt>
      <trkpt lat="43.24094" lon="6.36688">
        <ele>347.20001220703</ele>
        <time>2013-08-15T07:02:29Z</time>
      </trkpt>
      <trkpt lat="43.24093" lon="6.36683">
        <ele>346.60000610352</ele>
        <time>2013-08-15T07:02:44Z</time>
      </trkpt>
      <trkpt lat="43.24093" lon="6.36679">
        <ele>346.20001220703</ele>
        <time>2013-08-15T07:02:58Z</time>
      </trkpt>
      <trkpt lat="43.24095" lon="6.36675">
        <ele>346</ele>
        <time>2013-08-15T07:03:13Z</time>
      </trkpt>
      <trkpt lat="43.2409" lon="6.36673">
        <ele>345.20001220703</ele>
        <time>2013-08-15T07:03:25Z</time>
      </trkpt>
      <trkpt lat="43.24086" lon="6.36673">
        <ele>344.79998779297</ele>
        <time>2013-08-15T07:03:39Z</time>
      </trkpt>
      <trkpt lat="43.24084" lon="6.36672">
        <ele>344.60000610352</ele>
        <time>2013-08-15T07:03:54Z</time>
      </trkpt>
      <trkpt lat="43.24084" lon="6.36674">
        <ele>344.60000610352</ele>
        <time>2013-08-15T07:04:15Z</time>
      </trkpt>
      <trkpt lat="43.24084" lon="6.36674">
        <ele>344.60000610352</ele>
        <time>2013-08-15T07:04:41Z</time>
      </trkpt>
      <trkpt lat="43.24084" lon="6.36673">
        <ele>344.60000610352</ele>
        <time>2013-08-15T07:04:59Z</time>
      </trkpt>
      <trkpt lat="43.24078" lon="6.36679">
        <ele>344.39999389648</ele>
        <time>2013-08-15T07:05:19Z</time>
      </trkpt>
      <trkpt lat="43.24068" lon="6.3668">
        <ele>343.20001220703</ele>
        <time>2013-08-15T07:05:37Z</time>
      </trkpt>
      <trkpt lat="43.24068" lon="6.36679">
        <ele>343.20001220703</ele>
        <time>2013-08-15T07:05:55Z</time>
      </trkpt>
      <trkpt lat="43.24062" lon="6.36674">
        <ele>342.20001220703</ele>
        <time>2013-08-15T07:06:08Z</time>
      </trkpt>
      <trkpt lat="43.24058" lon="6.36679">
        <ele>341.79998779297</ele>
        <time>2013-08-15T07:06:21Z</time>
      </trkpt>
      <trkpt lat="43.24052" lon="6.3668">
        <ele>341</ele>
        <time>2013-08-15T07:06:33Z</time>
      </trkpt>
      <trkpt lat="43.24051" lon="6.36682">
        <ele>341</ele>
        <time>2013-08-15T07:06:47Z</time>
      </trkpt>
      <trkpt lat="43.2405" lon="6.36681">
        <ele>340.79998779297</ele>
        <time>2013-08-15T07:07:01Z</time>
      </trkpt>
      <trkpt lat="43.24049" lon="6.36685">
        <ele>340.60000610352</ele>
        <time>2013-08-15T07:07:20Z</time>
      </trkpt>
      <trkpt lat="43.24046" lon="6.36687">
        <ele>340.20001220703</ele>
        <time>2013-08-15T07:07:33Z</time>
      </trkpt>
      <trkpt lat="43.2404" lon="6.36694">
        <ele>338.79998779297</ele>
        <time>2013-08-15T07:07:50Z</time>
      </trkpt>
      <trkpt lat="43.2404" lon="6.36692">
        <ele>338.79998779297</ele>
        <time>2013-08-15T07:08:06Z</time>
      </trkpt>
      <trkpt lat="43.24032" lon="6.36691">
        <ele>337.60000610352</ele>
        <time>2013-08-15T07:08:27Z</time>
      </trkpt>
      <trkpt lat="43.24032" lon="6.36691">
        <ele>337.60000610352</ele>
        <time>2013-08-15T07:08:41Z</time>
      </trkpt>
      <trkpt lat="43.2403" lon="6.36689">
        <ele>337.39999389648</ele>
        <time>2013-08-15T07:08:51Z</time>
      </trkpt>
      <trkpt lat="43.24021" lon="6.3669">
        <ele>336</ele>
        <time>2013-08-15T07:09:04Z</time>
      </trkpt>
      <trkpt lat="43.24016" lon="6.36689">
        <ele>335.20001220703</ele>
        <time>2013-08-15T07:09:18Z</time>
      </trkpt>
      <trkpt lat="43.24017" lon="6.36691">
        <ele>335</ele>
        <time>2013-08-15T07:09:43Z</time>
      </trkpt>
      <trkpt lat="43.24014" lon="6.36691">
        <ele>334.60000610352</ele>
        <time>2013-08-15T07:10:06Z</time>
      </trkpt>
      <trkpt lat="43.2401" lon="6.36694">
        <ele>333.39999389648</ele>
        <time>2013-08-15T07:10:21Z</time>
      </trkpt>
      <trkpt lat="43.2401" lon="6.36692">
        <ele>333.79998779297</ele>
        <time>2013-08-15T07:10:26Z</time>
      </trkpt>
      <trkpt lat="43.24005" lon="6.36685">
        <ele>334.20001220703</ele>
        <time>2013-08-15T07:10:40Z</time>
      </trkpt>
      <trkpt lat="43.24004" lon="6.36685">
        <ele>334</ele>
        <time>2013-08-15T07:10:54Z</time>
      </trkpt>
      <trkpt lat="43.24003" lon="6.3668">
        <ele>334.60000610352</ele>
        <time>2013-08-15T07:11:08Z</time>
      </trkpt>
      <trkpt lat="43.24" lon="6.36678">
        <ele>334.60000610352</ele>
        <time>2013-08-15T07:11:18Z</time>
      </trkpt>
      <trkpt lat="43.24005" lon="6.36677">
        <ele>335.39999389648</ele>
        <time>2013-08-15T07:11:30Z</time>
      </trkpt>
      <trkpt lat="43.24002" lon="6.36678">
        <ele>335</ele>
        <time>2013-08-15T07:11:42Z</time>
      </trkpt>
      <trkpt lat="43.24001" lon="6.36683">
        <ele>334</ele>
        <time>2013-08-15T07:11:57Z</time>
      </trkpt>
      <trkpt lat="43.24003" lon="6.36687">
        <ele>333.39999389648</ele>
        <time>2013-08-15T07:12:09Z</time>
      </trkpt>
      <trkpt lat="43.24001" lon="6.36693">
        <ele>332</ele>
        <time>2013-08-15T07:12:23Z</time>
      </trkpt>
      <trkpt lat="43.24001" lon="6.36694">
        <ele>331.79998779297</ele>
        <time>2013-08-15T07:12:34Z</time>
      </trkpt>
      <trkpt lat="43.23998" lon="6.367">
        <ele>330.20001220703</ele>
        <time>2013-08-15T07:12:57Z</time>
      </trkpt>
      <trkpt lat="43.23998" lon="6.36703">
        <ele>329.60000610352</ele>
        <time>2013-08-15T07:13:13Z</time>
      </trkpt>
      <trkpt lat="43.23997" lon="6.36701">
        <ele>329.79998779297</ele>
        <time>2013-08-15T07:13:36Z</time>
      </trkpt>
      <trkpt lat="43.23994" lon="6.36701">
        <ele>329.20001220703</ele>
        <time>2013-08-15T07:13:59Z</time>
      </trkpt>
      <trkpt lat="43.23988" lon="6.36711">
        <ele>326</ele>
        <time>2013-08-15T07:14:13Z</time>
      </trkpt>
      <trkpt lat="43.23984" lon="6.36711">
        <ele>325.20001220703</ele>
        <time>2013-08-15T07:14:29Z</time>
      </trkpt>
      <trkpt lat="43.23981" lon="6.36714">
        <ele>324.20001220703</ele>
        <time>2013-08-15T07:14:46Z</time>
      </trkpt>
      <trkpt lat="43.23978" lon="6.36718">
        <ele>322.60000610352</ele>
        <time>2013-08-15T07:15:00Z</time>
      </trkpt>
      <trkpt lat="43.23978" lon="6.3672">
        <ele>322.20001220703</ele>
        <time>2013-08-15T07:15:24Z</time>
      </trkpt>
      <trkpt lat="43.23976" lon="6.36725">
        <ele>320.79998779297</ele>
        <time>2013-08-15T07:15:36Z</time>
      </trkpt>
      <trkpt lat="43.23973" lon="6.36729">
        <ele>319.39999389648</ele>
        <time>2013-08-15T07:15:54Z</time>
      </trkpt>
      <trkpt lat="43.23974" lon="6.36731">
        <ele>319</ele>
        <time>2013-08-15T07:16:13Z</time>
      </trkpt>
      <trkpt lat="43.23974" lon="6.36732">
        <ele>318.79998779297</ele>
        <time>2013-08-15T07:16:25Z</time>
      </trkpt>
      <trkpt lat="43.23972" lon="6.36732">
        <ele>318.39999389648</ele>
        <time>2013-08-15T07:16:44Z</time>
      </trkpt>
      <trkpt lat="43.23969" lon="6.36731">
        <ele>318</ele>
        <time>2013-08-15T07:16:58Z</time>
      </trkpt>
      <trkpt lat="43.23962" lon="6.36731">
        <ele>316.60000610352</ele>
        <time>2013-08-15T07:17:11Z</time>
      </trkpt>
      <trkpt lat="43.23955" lon="6.36731">
        <ele>315</ele>
        <time>2013-08-15T07:17:28Z</time>
      </trkpt>
      <trkpt lat="43.2395" lon="6.36734">
        <ele>313.20001220703</ele>
        <time>2013-08-15T07:17:39Z</time>
      </trkpt>
      <trkpt lat="43.23948" lon="6.36733">
        <ele>313.20001220703</ele>
        <time>2013-08-15T07:17:55Z</time>
      </trkpt>
      <trkpt lat="43.23948" lon="6.36735">
        <ele>312.39999389648</ele>
        <time>2013-08-15T07:18:10Z</time>
      </trkpt>
      <trkpt lat="43.23944" lon="6.3674">
        <ele>310.39999389648</ele>
        <time>2013-08-15T07:18:24Z</time>
      </trkpt>
      <trkpt lat="43.23937" lon="6.3675">
        <ele>306.60000610352</ele>
        <time>2013-08-15T07:18:38Z</time>
      </trkpt>
      <trkpt lat="43.23934" lon="6.36754">
        <ele>306.20001220703</ele>
        <time>2013-08-15T07:18:44Z</time>
      </trkpt>
      <trkpt lat="43.23926" lon="6.36763">
        <ele>304.79998779297</ele>
        <time>2013-08-15T07:18:57Z</time>
      </trkpt>
      <trkpt lat="43.23917" lon="6.36772">
        <ele>302.79998779297</ele>
        <time>2013-08-15T07:19:11Z</time>
      </trkpt>
      <trkpt lat="43.23907" lon="6.36779">
        <ele>301.60000610352</ele>
        <time>2013-08-15T07:19:25Z</time>
      </trkpt>
      <trkpt lat="43.239" lon="6.36786">
        <ele>300.79998779297</ele>
        <time>2013-08-15T07:19:39Z</time>
      </trkpt>
      <trkpt lat="43.23894" lon="6.36795">
        <ele>300.20001220703</ele>
        <time>2013-08-15T07:19:53Z</time>
      </trkpt>
      <trkpt lat="43.2389" lon="6.36799">
        <ele>299.60000610352</ele>
        <time>2013-08-15T07:20:08Z</time>
      </trkpt>
      <trkpt lat="43.2389" lon="6.36792">
        <ele>299.60000610352</ele>
        <time>2013-08-15T07:20:24Z</time>
      </trkpt>
      <trkpt lat="43.2389" lon="6.36791">
        <ele>299.39999389648</ele>
        <time>2013-08-15T07:20:38Z</time>
      </trkpt>
      <trkpt lat="43.23886" lon="6.36799">
        <ele>299</ele>
        <time>2013-08-15T07:20:52Z</time>
      </trkpt>
      <trkpt lat="43.23883" lon="6.36802">
        <ele>298.60000610352</ele>
        <time>2013-08-15T07:21:09Z</time>
      </trkpt>
      <trkpt lat="43.2388" lon="6.36805">
        <ele>298</ele>
        <time>2013-08-15T07:21:27Z</time>
      </trkpt>
      <trkpt lat="43.23876" lon="6.3681">
        <ele>297.39999389648</ele>
        <time>2013-08-15T07:21:41Z</time>
      </trkpt>
      <trkpt lat="43.23875" lon="6.36811">
        <ele>297.20001220703</ele>
        <time>2013-08-15T07:21:55Z</time>
      </trkpt>
      <trkpt lat="43.23873" lon="6.36806">
        <ele>296.79998779297</ele>
        <time>2013-08-15T07:22:13Z</time>
      </trkpt>
      <trkpt lat="43.23873" lon="6.36817">
        <ele>296.79998779297</ele>
        <time>2013-08-15T07:22:27Z</time>
      </trkpt>
      <trkpt lat="43.23871" lon="6.36817">
        <ele>296.39999389648</ele>
        <time>2013-08-15T07:22:40Z</time>
      </trkpt>
      <trkpt lat="43.23868" lon="6.3681">
        <ele>296</ele>
        <time>2013-08-15T07:23:03Z</time>
      </trkpt>
      <trkpt lat="43.23863" lon="6.36815">
        <ele>295</ele>
        <time>2013-08-15T07:23:18Z</time>
      </trkpt>
      <trkpt lat="43.23863" lon="6.36816">
        <ele>295</ele>
        <time>2013-08-15T07:23:35Z</time>
      </trkpt>
      <trkpt lat="43.23868" lon="6.36812">
        <ele>296</ele>
        <time>2013-08-15T07:23:47Z</time>
      </trkpt>
      <trkpt lat="43.23871" lon="6.36818">
        <ele>296.39999389648</ele>
        <time>2013-08-15T07:23:58Z</time>
      </trkpt>
      <trkpt lat="43.2387" lon="6.36826">
        <ele>296</ele>
        <time>2013-08-15T07:24:14Z</time>
      </trkpt>
      <trkpt lat="43.23871" lon="6.36838">
        <ele>296.79998779297</ele>
        <time>2013-08-15T07:24:28Z</time>
      </trkpt>
      <trkpt lat="43.23869" lon="6.36844">
        <ele>297.20001220703</ele>
        <time>2013-08-15T07:24:40Z</time>
      </trkpt>
      <trkpt lat="43.23867" lon="6.36849">
        <ele>297.39999389648</ele>
        <time>2013-08-15T07:24:46Z</time>
      </trkpt>
      <trkpt lat="43.23865" lon="6.36852">
        <ele>297.39999389648</ele>
        <time>2013-08-15T07:25:01Z</time>
      </trkpt>
      <trkpt lat="43.23863" lon="6.36852">
        <ele>297</ele>
        <time>2013-08-15T07:25:13Z</time>
      </trkpt>
      <trkpt lat="43.23858" lon="6.36852">
        <ele>295.79998779297</ele>
        <time>2013-08-15T07:25:25Z</time>
      </trkpt>
      <trkpt lat="43.2386" lon="6.36854">
        <ele>296.39999389648</ele>
        <time>2013-08-15T07:25:43Z</time>
      </trkpt>
      <trkpt lat="43.2386" lon="6.36855">
        <ele>296.39999389648</ele>
        <time>2013-08-15T07:25:57Z</time>
      </trkpt>
      <trkpt lat="43.23865" lon="6.36855">
        <ele>297.79998779297</ele>
        <time>2013-08-15T07:26:11Z</time>
      </trkpt>
      <trkpt lat="43.2387" lon="6.36848">
        <ele>298</ele>
        <time>2013-08-15T07:26:23Z</time>
      </trkpt>
      <trkpt lat="43.2387" lon="6.36848">
        <ele>298</ele>
        <time>2013-08-15T07:26:24Z</time>
      </trkpt>
      <trkpt lat="43.23871" lon="6.36841">
        <ele>297.20001220703</ele>
        <time>2013-08-15T07:26:35Z</time>
      </trkpt>
      <trkpt lat="43.23869" lon="6.36837">
        <ele>296.20001220703</ele>
        <time>2013-08-15T07:26:55Z</time>
      </trkpt>
      <trkpt lat="43.23868" lon="6.3683">
        <ele>295.60000610352</ele>
        <time>2013-08-15T07:27:07Z</time>
      </trkpt>
      <trkpt lat="43.2387" lon="6.36822">
        <ele>296.20001220703</ele>
        <time>2013-08-15T07:27:19Z</time>
      </trkpt>
      <trkpt lat="43.2387" lon="6.36815">
        <ele>296.39999389648</ele>
        <time>2013-08-15T07:27:39Z</time>
      </trkpt>
      <trkpt lat="43.23868" lon="6.3681">
        <ele>296</ele>
        <time>2013-08-15T07:27:53Z</time>
      </trkpt>
      <trkpt lat="43.23862" lon="6.36819">
        <ele>294.79998779297</ele>
        <time>2013-08-15T07:28:08Z</time>
      </trkpt>
      <trkpt lat="43.2386" lon="6.36829">
        <ele>294.20001220703</ele>
        <time>2013-08-15T07:28:24Z</time>
      </trkpt>
      <trkpt lat="43.23858" lon="6.36837">
        <ele>294</ele>
        <time>2013-08-15T07:28:38Z</time>
      </trkpt>
      <trkpt lat="43.23857" lon="6.36838">
        <ele>294</ele>
        <time>2013-08-15T07:28:50Z</time>
      </trkpt>
      <trkpt lat="43.23857" lon="6.36838">
        <ele>294</ele>
        <time>2013-08-15T07:29:02Z</time>
      </trkpt>
      <trkpt lat="43.23849" lon="6.3685">
        <ele>293.20001220703</ele>
        <time>2013-08-15T07:29:16Z</time>
      </trkpt>
      <trkpt lat="43.23846" lon="6.36847">
        <ele>292.39999389648</ele>
        <time>2013-08-15T07:29:31Z</time>
      </trkpt>
      <trkpt lat="43.23841" lon="6.36854">
        <ele>291.39999389648</ele>
        <time>2013-08-15T07:29:45Z</time>
      </trkpt>
      <trkpt lat="43.23836" lon="6.36857">
        <ele>290.39999389648</ele>
        <time>2013-08-15T07:30:09Z</time>
      </trkpt>
      <trkpt lat="43.2383" lon="6.36857">
        <ele>290</ele>
        <time>2013-08-15T07:30:21Z</time>
      </trkpt>
      <trkpt lat="43.23822" lon="6.3686">
        <ele>290.79998779297</ele>
        <time>2013-08-15T07:30:42Z</time>
      </trkpt>
      <trkpt lat="43.23823" lon="6.36857">
        <ele>290.60000610352</ele>
        <time>2013-08-15T07:31:01Z</time>
      </trkpt>
      <trkpt lat="43.23823" lon="6.36851">
        <ele>290.39999389648</ele>
        <time>2013-08-15T07:31:21Z</time>
      </trkpt>
      <trkpt lat="43.23819" lon="6.36859">
        <ele>291</ele>
        <time>2013-08-15T07:31:35Z</time>
      </trkpt>
      <trkpt lat="43.23811" lon="6.36869">
        <ele>292</ele>
        <time>2013-08-15T07:31:49Z</time>
      </trkpt>
      <trkpt lat="43.23807" lon="6.36876">
        <ele>292.39999389648</ele>
        <time>2013-08-15T07:32:03Z</time>
      </trkpt>
      <trkpt lat="43.23801" lon="6.36887">
        <ele>293.20001220703</ele>
        <time>2013-08-15T07:32:16Z</time>
      </trkpt>
      <trkpt lat="43.23799" lon="6.36893">
        <ele>293.39999389648</ele>
        <time>2013-08-15T07:32:28Z</time>
      </trkpt>
      <trkpt lat="43.23791" lon="6.36892">
        <ele>294</ele>
        <time>2013-08-15T07:32:43Z</time>
      </trkpt>
      <trkpt lat="43.23786" lon="6.36896">
        <ele>294.39999389648</ele>
        <time>2013-08-15T07:32:58Z</time>
      </trkpt>
      <trkpt lat="43.23785" lon="6.36898">
        <ele>294.60000610352</ele>
        <time>2013-08-15T07:33:11Z</time>
      </trkpt>
      <trkpt lat="43.23784" lon="6.36899">
        <ele>294.60000610352</ele>
        <time>2013-08-15T07:33:28Z</time>
      </trkpt>
      <trkpt lat="43.23781" lon="6.36898">
        <ele>294.79998779297</ele>
        <time>2013-08-15T07:33:43Z</time>
      </trkpt>
      <trkpt lat="43.23778" lon="6.36901">
        <ele>295</ele>
        <time>2013-08-15T07:33:57Z</time>
      </trkpt>
      <trkpt lat="43.23776" lon="6.36905">
        <ele>295.20001220703</ele>
        <time>2013-08-15T07:34:10Z</time>
      </trkpt>
      <trkpt lat="43.23768" lon="6.36907">
        <ele>295.79998779297</ele>
        <time>2013-08-15T07:34:24Z</time>
      </trkpt>
      <trkpt lat="43.23764" lon="6.36908">
        <ele>296</ele>
        <time>2013-08-15T07:34:39Z</time>
      </trkpt>
      <trkpt lat="43.23759" lon="6.36907">
        <ele>296.39999389648</ele>
        <time>2013-08-15T07:34:53Z</time>
      </trkpt>
      <trkpt lat="43.23753" lon="6.36908">
        <ele>296.60000610352</ele>
        <time>2013-08-15T07:35:08Z</time>
      </trkpt>
      <trkpt lat="43.23746" lon="6.36914">
        <ele>297.79998779297</ele>
        <time>2013-08-15T07:35:23Z</time>
      </trkpt>
      <trkpt lat="43.23743" lon="6.36918">
        <ele>298.20001220703</ele>
        <time>2013-08-15T07:35:36Z</time>
      </trkpt>
      <trkpt lat="43.23741" lon="6.36919">
        <ele>298.39999389648</ele>
        <time>2013-08-15T07:35:55Z</time>
      </trkpt>
      <trkpt lat="43.23742" lon="6.36914">
        <ele>298.39999389648</ele>
        <time>2013-08-15T07:36:06Z</time>
      </trkpt>
      <trkpt lat="43.23743" lon="6.36916">
        <ele>298.20001220703</ele>
        <time>2013-08-15T07:36:09Z</time>
      </trkpt>
      <trkpt lat="43.23739" lon="6.36924">
        <ele>298.60000610352</ele>
        <time>2013-08-15T07:36:20Z</time>
      </trkpt>
      <trkpt lat="43.23736" lon="6.36918">
        <ele>299.39999389648</ele>
        <time>2013-08-15T07:36:35Z</time>
      </trkpt>
      <trkpt lat="43.23736" lon="6.36915">
        <ele>299.60000610352</ele>
        <time>2013-08-15T07:36:53Z</time>
      </trkpt>
      <trkpt lat="43.23735" lon="6.36913">
        <ele>299.60000610352</ele>
        <time>2013-08-15T07:37:18Z</time>
      </trkpt>
      <trkpt lat="43.23735" lon="6.36909">
        <ele>299.60000610352</ele>
        <time>2013-08-15T07:37:34Z</time>
      </trkpt>
      <trkpt lat="43.23733" lon="6.36906">
        <ele>299.79998779297</ele>
        <time>2013-08-15T07:37:40Z</time>
      </trkpt>
      <trkpt lat="43.23733" lon="6.36905">
        <ele>299.79998779297</ele>
        <time>2013-08-15T07:37:56Z</time>
      </trkpt>
      <trkpt lat="43.23732" lon="6.36908">
        <ele>300</ele>
        <time>2013-08-15T07:38:11Z</time>
      </trkpt>
      <trkpt lat="43.23736" lon="6.36916">
        <ele>299.60000610352</ele>
        <time>2013-08-15T07:38:31Z</time>
      </trkpt>
      <trkpt lat="43.23733" lon="6.36925">
        <ele>299.79998779297</ele>
        <time>2013-08-15T07:38:44Z</time>
      </trkpt>
      <trkpt lat="43.23734" lon="6.36931">
        <ele>299.60000610352</ele>
        <time>2013-08-15T07:38:57Z</time>
      </trkpt>
      <trkpt lat="43.23728" lon="6.36938">
        <ele>300.60000610352</ele>
        <time>2013-08-15T07:39:10Z</time>
      </trkpt>
      <trkpt lat="43.23722" lon="6.36945">
        <ele>302.39999389648</ele>
        <time>2013-08-15T07:39:24Z</time>
      </trkpt>
      <trkpt lat="43.23717" lon="6.36953">
        <ele>304</ele>
        <time>2013-08-15T07:39:39Z</time>
      </trkpt>
      <trkpt lat="43.23716" lon="6.36957">
        <ele>304.39999389648</ele>
        <time>2013-08-15T07:39:50Z</time>
      </trkpt>
      <trkpt lat="43.23709" lon="6.36965">
        <ele>307.39999389648</ele>
        <time>2013-08-15T07:40:06Z</time>
      </trkpt>
      <trkpt lat="43.23707" lon="6.36963">
        <ele>308</ele>
        <time>2013-08-15T07:40:23Z</time>
      </trkpt>
      <trkpt lat="43.23699" lon="6.36962">
        <ele>310.60000610352</ele>
        <time>2013-08-15T07:40:41Z</time>
      </trkpt>
      <trkpt lat="43.23694" lon="6.36964">
        <ele>312.60000610352</ele>
        <time>2013-08-15T07:40:56Z</time>
      </trkpt>
      <trkpt lat="43.23691" lon="6.36968">
        <ele>314.20001220703</ele>
        <time>2013-08-15T07:41:11Z</time>
      </trkpt>
      <trkpt lat="43.23687" lon="6.36974">
        <ele>316.60000610352</ele>
        <time>2013-08-15T07:41:29Z</time>
      </trkpt>
      <trkpt lat="43.23681" lon="6.36978">
        <ele>319.39999389648</ele>
        <time>2013-08-15T07:41:45Z</time>
      </trkpt>
      <trkpt lat="43.23677" lon="6.36988">
        <ele>322.79998779297</ele>
        <time>2013-08-15T07:42:05Z</time>
      </trkpt>
      <trkpt lat="43.23671" lon="6.36995">
        <ele>326.60000610352</ele>
        <time>2013-08-15T07:42:20Z</time>
      </trkpt>
      <trkpt lat="43.23666" lon="6.37005">
        <ele>329.20001220703</ele>
        <time>2013-08-15T07:42:38Z</time>
      </trkpt>
      <trkpt lat="43.23665" lon="6.37008">
        <ele>328.60000610352</ele>
        <time>2013-08-15T07:42:40Z</time>
      </trkpt>
      <trkpt lat="43.2366" lon="6.37024">
        <ele>326.39999389648</ele>
        <time>2013-08-15T07:42:58Z</time>
      </trkpt>
      <trkpt lat="43.23656" lon="6.37032">
        <ele>325.39999389648</ele>
        <time>2013-08-15T07:43:12Z</time>
      </trkpt>
      <trkpt lat="43.23651" lon="6.37042">
        <ele>324.39999389648</ele>
        <time>2013-08-15T07:43:30Z</time>
      </trkpt>
      <trkpt lat="43.23643" lon="6.37058">
        <ele>323</ele>
        <time>2013-08-15T07:43:47Z</time>
      </trkpt>
      <trkpt lat="43.23638" lon="6.37066">
        <ele>322.79998779297</ele>
        <time>2013-08-15T07:43:57Z</time>
      </trkpt>
      <trkpt lat="43.23634" lon="6.37079">
        <ele>322.39999389648</ele>
        <time>2013-08-15T07:44:11Z</time>
      </trkpt>
      <trkpt lat="43.23632" lon="6.37088">
        <ele>321.60000610352</ele>
        <time>2013-08-15T07:44:21Z</time>
      </trkpt>
      <trkpt lat="43.23623" lon="6.37102">
        <ele>319.79998779297</ele>
        <time>2013-08-15T07:44:36Z</time>
      </trkpt>
      <trkpt lat="43.23617" lon="6.37108">
        <ele>319.39999389648</ele>
        <time>2013-08-15T07:44:52Z</time>
      </trkpt>
      <trkpt lat="43.2361" lon="6.37114">
        <ele>319.39999389648</ele>
        <time>2013-08-15T07:45:09Z</time>
      </trkpt>
      <trkpt lat="43.23598" lon="6.37121">
        <ele>320</ele>
        <time>2013-08-15T07:45:25Z</time>
      </trkpt>
      <trkpt lat="43.23583" lon="6.37121">
        <ele>322.39999389648</ele>
        <time>2013-08-15T07:45:41Z</time>
      </trkpt>
      <trkpt lat="43.23567" lon="6.37138">
        <ele>323.79998779297</ele>
        <time>2013-08-15T07:45:56Z</time>
      </trkpt>
      <trkpt lat="43.23563" lon="6.37139">
        <ele>324.39999389648</ele>
        <time>2013-08-15T07:46:14Z</time>
      </trkpt>
      <trkpt lat="43.2356" lon="6.37135">
        <ele>324.79998779297</ele>
        <time>2013-08-15T07:46:40Z</time>
      </trkpt>
      <trkpt lat="43.23557" lon="6.37129">
        <ele>325.39999389648</ele>
        <time>2013-08-15T07:47:08Z</time>
      </trkpt>
      <trkpt lat="43.23558" lon="6.37128">
        <ele>325.20001220703</ele>
        <time>2013-08-15T07:47:44Z</time>
      </trkpt>
      <trkpt lat="43.23557" lon="6.3713">
        <ele>325.39999389648</ele>
        <time>2013-08-15T07:48:15Z</time>
      </trkpt>
      <trkpt lat="43.23558" lon="6.37132">
        <ele>325.39999389648</ele>
        <time>2013-08-15T07:48:26Z</time>
      </trkpt>
      <trkpt lat="43.2355" lon="6.3715">
        <ele>327.20001220703</ele>
        <time>2013-08-15T07:48:42Z</time>
      </trkpt>
      <trkpt lat="43.23551" lon="6.37159">
        <ele>327.39999389648</ele>
        <time>2013-08-15T07:49:01Z</time>
      </trkpt>
      <trkpt lat="43.23551" lon="6.37162">
        <ele>327.60000610352</ele>
        <time>2013-08-15T07:49:06Z</time>
      </trkpt>
      <trkpt lat="43.23545" lon="6.37182">
        <ele>326.39999389648</ele>
        <time>2013-08-15T07:49:26Z</time>
      </trkpt>
      <trkpt lat="43.23535" lon="6.37205">
        <ele>325.60000610352</ele>
        <time>2013-08-15T07:49:45Z</time>
      </trkpt>
      <trkpt lat="43.23527" lon="6.37228">
        <ele>325.79998779297</ele>
        <time>2013-08-15T07:50:04Z</time>
      </trkpt>
      <trkpt lat="43.23524" lon="6.37235">
        <ele>326.20001220703</ele>
        <time>2013-08-15T07:50:11Z</time>
      </trkpt>
      <trkpt lat="43.23514" lon="6.37261">
        <ele>328</ele>
        <time>2013-08-15T07:50:32Z</time>
      </trkpt>
      <trkpt lat="43.23511" lon="6.37266">
        <ele>328.79998779297</ele>
        <time>2013-08-15T07:50:35Z</time>
      </trkpt>
      <trkpt lat="43.23506" lon="6.37284">
        <ele>329</ele>
        <time>2013-08-15T07:50:46Z</time>
      </trkpt>
      <trkpt lat="43.23506" lon="6.37303">
        <ele>326.20001220703</ele>
        <time>2013-08-15T07:51:02Z</time>
      </trkpt>
      <trkpt lat="43.23509" lon="6.37315">
        <ele>323.39999389648</ele>
        <time>2013-08-15T07:51:17Z</time>
      </trkpt>
      <trkpt lat="43.23514" lon="6.37335">
        <ele>317.60000610352</ele>
        <time>2013-08-15T07:51:37Z</time>
      </trkpt>
      <trkpt lat="43.23516" lon="6.37364">
        <ele>317.79998779297</ele>
        <time>2013-08-15T07:51:57Z</time>
      </trkpt>
      <trkpt lat="43.23512" lon="6.37387">
        <ele>321</ele>
        <time>2013-08-15T07:52:13Z</time>
      </trkpt>
      <trkpt lat="43.23525" lon="6.37397">
        <ele>314.39999389648</ele>
        <time>2013-08-15T07:52:29Z</time>
      </trkpt>
      <trkpt lat="43.2353" lon="6.37419">
        <ele>312.60000610352</ele>
        <time>2013-08-15T07:52:46Z</time>
      </trkpt>
      <trkpt lat="43.2353" lon="6.37421">
        <ele>313</ele>
        <time>2013-08-15T07:52:48Z</time>
      </trkpt>
      <trkpt lat="43.23532" lon="6.37445">
        <ele>316.20001220703</ele>
        <time>2013-08-15T07:53:05Z</time>
      </trkpt>
      <trkpt lat="43.23538" lon="6.37467">
        <ele>316.60000610352</ele>
        <time>2013-08-15T07:53:25Z</time>
      </trkpt>
      <trkpt lat="43.23542" lon="6.37491">
        <ele>318.39999389648</ele>
        <time>2013-08-15T07:53:47Z</time>
      </trkpt>
      <trkpt lat="43.23551" lon="6.37508">
        <ele>317.39999389648</ele>
        <time>2013-08-15T07:54:09Z</time>
      </trkpt>
      <trkpt lat="43.23566" lon="6.37512">
        <ele>310.60000610352</ele>
        <time>2013-08-15T07:54:28Z</time>
      </trkpt>
      <trkpt lat="43.23586" lon="6.37527">
        <ele>305.39999389648</ele>
        <time>2013-08-15T07:54:48Z</time>
      </trkpt>
      <trkpt lat="43.23596" lon="6.37538">
        <ele>305.60000610352</ele>
        <time>2013-08-15T07:55:00Z</time>
      </trkpt>
      <trkpt lat="43.23602" lon="6.37562">
        <ele>310</ele>
        <time>2013-08-15T07:55:20Z</time>
      </trkpt>
      <trkpt lat="43.23619" lon="6.37581">
        <ele>307.39999389648</ele>
        <time>2013-08-15T07:55:43Z</time>
      </trkpt>
      <trkpt lat="43.23636" lon="6.37602">
        <ele>304</ele>
        <time>2013-08-15T07:56:05Z</time>
      </trkpt>
      <trkpt lat="43.23652" lon="6.37617">
        <ele>299.39999389648</ele>
        <time>2013-08-15T07:56:25Z</time>
      </trkpt>
      <trkpt lat="43.23664" lon="6.37629">
        <ele>295.79998779297</ele>
        <time>2013-08-15T07:56:38Z</time>
      </trkpt>
      <trkpt lat="43.23671" lon="6.37652">
        <ele>297.60000610352</ele>
        <time>2013-08-15T07:56:59Z</time>
      </trkpt>
      <trkpt lat="43.23667" lon="6.37687">
        <ele>302.60000610352</ele>
        <time>2013-08-15T07:57:21Z</time>
      </trkpt>
      <trkpt lat="43.23664" lon="6.37707">
        <ele>304.39999389648</ele>
        <time>2013-08-15T07:57:40Z</time>
      </trkpt>
      <trkpt lat="43.23664" lon="6.37709">
        <ele>304.60000610352</ele>
        <time>2013-08-15T07:57:41Z</time>
      </trkpt>
      <trkpt lat="43.23654" lon="6.37736">
        <ele>310.39999389648</ele>
        <time>2013-08-15T07:58:02Z</time>
      </trkpt>
      <trkpt lat="43.2365" lon="6.37756">
        <ele>313.39999389648</ele>
        <time>2013-08-15T07:58:20Z</time>
      </trkpt>
      <trkpt lat="43.23669" lon="6.37772">
        <ele>307.20001220703</ele>
        <time>2013-08-15T07:58:45Z</time>
      </trkpt>
      <trkpt lat="43.2368" lon="6.37793">
        <ele>305.79998779297</ele>
        <time>2013-08-15T07:59:06Z</time>
      </trkpt>
      <trkpt lat="43.23691" lon="6.37813">
        <ele>304</ele>
        <time>2013-08-15T07:59:28Z</time>
      </trkpt>
      <trkpt lat="43.23709" lon="6.37838">
        <ele>299.20001220703</ele>
        <time>2013-08-15T07:59:46Z</time>
      </trkpt>
      <trkpt lat="43.2371" lon="6.37859">
        <ele>302.39999389648</ele>
        <time>2013-08-15T08:00:06Z</time>
      </trkpt>
      <trkpt lat="43.23717" lon="6.37879">
        <ele>302.39999389648</ele>
        <time>2013-08-15T08:00:28Z</time>
      </trkpt>
      <trkpt lat="43.2373" lon="6.3789">
        <ele>298.39999389648</ele>
        <time>2013-08-15T08:00:47Z</time>
      </trkpt>
      <trkpt lat="43.23751" lon="6.37909">
        <ele>292.39999389648</ele>
        <time>2013-08-15T08:01:07Z</time>
      </trkpt>
      <trkpt lat="43.23763" lon="6.37926">
        <ele>291</ele>
        <time>2013-08-15T08:01:26Z</time>
      </trkpt>
      <trkpt lat="43.23774" lon="6.37949">
        <ele>290.39999389648</ele>
        <time>2013-08-15T08:01:44Z</time>
      </trkpt>
      <trkpt lat="43.23787" lon="6.37964">
        <ele>288.20001220703</ele>
        <time>2013-08-15T08:02:00Z</time>
      </trkpt>
      <trkpt lat="43.23787" lon="6.37966">
        <ele>288.39999389648</ele>
        <time>2013-08-15T08:02:01Z</time>
      </trkpt>
      <trkpt lat="43.2379" lon="6.37993">
        <ele>291</ele>
        <time>2013-08-15T08:02:19Z</time>
      </trkpt>
      <trkpt lat="43.23791" lon="6.37997">
        <ele>291.20001220703</ele>
        <time>2013-08-15T08:02:22Z</time>
      </trkpt>
      <trkpt lat="43.23794" lon="6.38028">
        <ele>292</ele>
        <time>2013-08-15T08:02:45Z</time>
      </trkpt>
      <trkpt lat="43.23797" lon="6.38049">
        <ele>291.79998779297</ele>
        <time>2013-08-15T08:03:03Z</time>
      </trkpt>
      <trkpt lat="43.23801" lon="6.38071">
        <ele>291</ele>
        <time>2013-08-15T08:03:22Z</time>
      </trkpt>
      <trkpt lat="43.23802" lon="6.38087">
        <ele>291.20001220703</ele>
        <time>2013-08-15T08:03:42Z</time>
      </trkpt>
      <trkpt lat="43.23816" lon="6.3811">
        <ele>286</ele>
        <time>2013-08-15T08:04:03Z</time>
      </trkpt>
      <trkpt lat="43.23825" lon="6.38142">
        <ele>283.39999389648</ele>
        <time>2013-08-15T08:04:26Z</time>
      </trkpt>
      <trkpt lat="43.23833" lon="6.3817">
        <ele>281.39999389648</ele>
        <time>2013-08-15T08:04:50Z</time>
      </trkpt>
      <trkpt lat="43.23847" lon="6.38199">
        <ele>278.79998779297</ele>
        <time>2013-08-15T08:05:11Z</time>
      </trkpt>
      <trkpt lat="43.23855" lon="6.38224">
        <ele>277.79998779297</ele>
        <time>2013-08-15T08:05:32Z</time>
      </trkpt>
      <trkpt lat="43.23862" lon="6.38241">
        <ele>275.79998779297</ele>
        <time>2013-08-15T08:05:55Z</time>
      </trkpt>
      <trkpt lat="43.23867" lon="6.38262">
        <ele>275</ele>
        <time>2013-08-15T08:06:15Z</time>
      </trkpt>
      <trkpt lat="43.23864" lon="6.38287">
        <ele>277.79998779297</ele>
        <time>2013-08-15T08:06:38Z</time>
      </trkpt>
      <trkpt lat="43.23864" lon="6.38324">
        <ele>280.20001220703</ele>
        <time>2013-08-15T08:06:57Z</time>
      </trkpt>
      <trkpt lat="43.23859" lon="6.3834">
        <ele>283.60000610352</ele>
        <time>2013-08-15T08:07:19Z</time>
      </trkpt>
      <trkpt lat="43.23859" lon="6.38353">
        <ele>285.60000610352</ele>
        <time>2013-08-15T08:07:39Z</time>
      </trkpt>
      <trkpt lat="43.23859" lon="6.38357">
        <ele>286</ele>
        <time>2013-08-15T08:07:58Z</time>
      </trkpt>
      <trkpt lat="43.23867" lon="6.38356">
        <ele>282.20001220703</ele>
        <time>2013-08-15T08:08:19Z</time>
      </trkpt>
      <trkpt lat="43.23883" lon="6.38347">
        <ele>273.39999389648</ele>
        <time>2013-08-15T08:08:35Z</time>
      </trkpt>
      <trkpt lat="43.23888" lon="6.38354">
        <ele>272.60000610352</ele>
        <time>2013-08-15T08:08:52Z</time>
      </trkpt>
      <trkpt lat="43.23896" lon="6.38353">
        <ele>268.60000610352</ele>
        <time>2013-08-15T08:09:14Z</time>
      </trkpt>
      <trkpt lat="43.23905" lon="6.3836">
        <ele>266.39999389648</ele>
        <time>2013-08-15T08:09:21Z</time>
      </trkpt>
      <trkpt lat="43.23922" lon="6.38377">
        <ele>264.39999389648</ele>
        <time>2013-08-15T08:09:39Z</time>
      </trkpt>
      <trkpt lat="43.23933" lon="6.38397">
        <ele>265.60000610352</ele>
        <time>2013-08-15T08:09:57Z</time>
      </trkpt>
      <trkpt lat="43.23948" lon="6.3842">
        <ele>264.60000610352</ele>
        <time>2013-08-15T08:10:19Z</time>
      </trkpt>
      <trkpt lat="43.23965" lon="6.38444">
        <ele>261.79998779297</ele>
        <time>2013-08-15T08:10:40Z</time>
      </trkpt>
      <trkpt lat="43.23976" lon="6.3847">
        <ele>260.39999389648</ele>
        <time>2013-08-15T08:10:59Z</time>
      </trkpt>
      <trkpt lat="43.23976" lon="6.38496">
        <ele>264.60000610352</ele>
        <time>2013-08-15T08:11:19Z</time>
      </trkpt>
      <trkpt lat="43.23981" lon="6.38519">
        <ele>262.60000610352</ele>
        <time>2013-08-15T08:11:39Z</time>
      </trkpt>
      <trkpt lat="43.23993" lon="6.3854">
        <ele>256.39999389648</ele>
        <time>2013-08-15T08:12:01Z</time>
      </trkpt>
      <trkpt lat="43.23989" lon="6.38579">
        <ele>259.39999389648</ele>
        <time>2013-08-15T08:12:20Z</time>
      </trkpt>
      <trkpt lat="43.23992" lon="6.38597">
        <ele>257.60000610352</ele>
        <time>2013-08-15T08:12:36Z</time>
      </trkpt>
      <trkpt lat="43.23996" lon="6.38619">
        <ele>255.60000610352</ele>
        <time>2013-08-15T08:12:56Z</time>
      </trkpt>
      <trkpt lat="43.24004" lon="6.38646">
        <ele>252.80000305176</ele>
        <time>2013-08-15T08:13:13Z</time>
      </trkpt>
      <trkpt lat="43.23992" lon="6.3867">
        <ele>257.79998779297</ele>
        <time>2013-08-15T08:13:30Z</time>
      </trkpt>
      <trkpt lat="43.23983" lon="6.38682">
        <ele>263.39999389648</ele>
        <time>2013-08-15T08:13:56Z</time>
      </trkpt>
      <trkpt lat="43.23968" lon="6.38687">
        <ele>269.39999389648</ele>
        <time>2013-08-15T08:14:18Z</time>
      </trkpt>
      <trkpt lat="43.23976" lon="6.38691">
        <ele>267</ele>
        <time>2013-08-15T08:14:39Z</time>
      </trkpt>
      <trkpt lat="43.23978" lon="6.38685">
        <ele>265.60000610352</ele>
        <time>2013-08-15T08:15:01Z</time>
      </trkpt>
      <trkpt lat="43.24011" lon="6.38697">
        <ele>257</ele>
        <time>2013-08-15T08:15:22Z</time>
      </trkpt>
      <trkpt lat="43.24029" lon="6.38697">
        <ele>252.19999694824</ele>
        <time>2013-08-15T08:15:40Z</time>
      </trkpt>
      <trkpt lat="43.24048" lon="6.38706">
        <ele>248.80000305176</ele>
        <time>2013-08-15T08:16:00Z</time>
      </trkpt>
      <trkpt lat="43.2406" lon="6.38715">
        <ele>247.39999389648</ele>
        <time>2013-08-15T08:16:18Z</time>
      </trkpt>
      <trkpt lat="43.24066" lon="6.38734">
        <ele>248.80000305176</ele>
        <time>2013-08-15T08:16:38Z</time>
      </trkpt>
      <trkpt lat="43.24075" lon="6.38751">
        <ele>249.60000610352</ele>
        <time>2013-08-15T08:17:00Z</time>
      </trkpt>
      <trkpt lat="43.24088" lon="6.38771">
        <ele>251</ele>
        <time>2013-08-15T08:17:27Z</time>
      </trkpt>
      <trkpt lat="43.24092" lon="6.38802">
        <ele>257</ele>
        <time>2013-08-15T08:17:51Z</time>
      </trkpt>
      <trkpt lat="43.24101" lon="6.38829">
        <ele>259.60000610352</ele>
        <time>2013-08-15T08:18:13Z</time>
      </trkpt>
      <trkpt lat="43.24103" lon="6.38855">
        <ele>260.79998779297</ele>
        <time>2013-08-15T08:18:38Z</time>
      </trkpt>
      <trkpt lat="43.24102" lon="6.38878">
        <ele>262.20001220703</ele>
        <time>2013-08-15T08:19:00Z</time>
      </trkpt>
      <trkpt lat="43.24102" lon="6.38903">
        <ele>263.39999389648</ele>
        <time>2013-08-15T08:19:22Z</time>
      </trkpt>
      <trkpt lat="43.24096" lon="6.38917">
        <ele>266</ele>
        <time>2013-08-15T08:19:45Z</time>
      </trkpt>
      <trkpt lat="43.24092" lon="6.38919">
        <ele>267.20001220703</ele>
        <time>2013-08-15T08:19:50Z</time>
      </trkpt>
      <trkpt lat="43.24071" lon="6.38935">
        <ele>271.20001220703</ele>
        <time>2013-08-15T08:20:15Z</time>
      </trkpt>
      <trkpt lat="43.24067" lon="6.38934">
        <ele>272.60000610352</ele>
        <time>2013-08-15T08:20:34Z</time>
      </trkpt>
      <trkpt lat="43.24057" lon="6.38936">
        <ele>275</ele>
        <time>2013-08-15T08:20:58Z</time>
      </trkpt>
      <trkpt lat="43.24041" lon="6.38936">
        <ele>280</ele>
        <time>2013-08-15T08:21:22Z</time>
      </trkpt>
      <trkpt lat="43.24037" lon="6.38932">
        <ele>281.79998779297</ele>
        <time>2013-08-15T08:21:43Z</time>
      </trkpt>
      <trkpt lat="43.24028" lon="6.38933">
        <ele>284.39999389648</ele>
        <time>2013-08-15T08:22:04Z</time>
      </trkpt>
      <trkpt lat="43.24025" lon="6.38959">
        <ele>282.39999389648</ele>
        <time>2013-08-15T08:22:25Z</time>
      </trkpt>
      <trkpt lat="43.2403" lon="6.38982">
        <ele>278</ele>
        <time>2013-08-15T08:22:50Z</time>
      </trkpt>
      <trkpt lat="43.24017" lon="6.39009">
        <ele>279.39999389648</ele>
        <time>2013-08-15T08:23:14Z</time>
      </trkpt>
      <trkpt lat="43.24006" lon="6.39022">
        <ele>281.20001220703</ele>
        <time>2013-08-15T08:23:33Z</time>
      </trkpt>
      <trkpt lat="43.23992" lon="6.39049">
        <ele>282.60000610352</ele>
        <time>2013-08-15T08:23:57Z</time>
      </trkpt>
      <trkpt lat="43.23981" lon="6.39055">
        <ele>286.79998779297</ele>
        <time>2013-08-15T08:24:19Z</time>
      </trkpt>
      <trkpt lat="43.23963" lon="6.39064">
        <ele>294.20001220703</ele>
        <time>2013-08-15T08:24:42Z</time>
      </trkpt>
      <trkpt lat="43.2396" lon="6.39062">
        <ele>295.79998779297</ele>
        <time>2013-08-15T08:24:53Z</time>
      </trkpt>
      <trkpt lat="43.23957" lon="6.39066">
        <ele>296.79998779297</ele>
        <time>2013-08-15T08:24:59Z</time>
      </trkpt>
      <trkpt lat="43.2395" lon="6.39072">
        <ele>299.20001220703</ele>
        <time>2013-08-15T08:25:16Z</time>
      </trkpt>
      <trkpt lat="43.23943" lon="6.39091">
        <ele>300.20001220703</ele>
        <time>2013-08-15T08:25:37Z</time>
      </trkpt>
      <trkpt lat="43.23946" lon="6.39116">
        <ele>295.79998779297</ele>
        <time>2013-08-15T08:25:55Z</time>
      </trkpt>
      <trkpt lat="43.23943" lon="6.39148">
        <ele>294.60000610352</ele>
        <time>2013-08-15T08:26:18Z</time>
      </trkpt>
      <trkpt lat="43.23938" lon="6.39171">
        <ele>295.79998779297</ele>
        <time>2013-08-15T08:26:42Z</time>
      </trkpt>
      <trkpt lat="43.23931" lon="6.39193">
        <ele>302.79998779297</ele>
        <time>2013-08-15T08:27:07Z</time>
      </trkpt>
      <trkpt lat="43.23928" lon="6.39208">
        <ele>306.79998779297</ele>
        <time>2013-08-15T08:27:33Z</time>
      </trkpt>
      <trkpt lat="43.23922" lon="6.39244">
        <ele>314.20001220703</ele>
        <time>2013-08-15T08:27:57Z</time>
      </trkpt>
      <trkpt lat="43.23928" lon="6.39276">
        <ele>316.60000610352</ele>
        <time>2013-08-15T08:28:17Z</time>
      </trkpt>
      <trkpt lat="43.23933" lon="6.39284">
        <ele>315.79998779297</ele>
        <time>2013-08-15T08:28:40Z</time>
      </trkpt>
      <trkpt lat="43.23945" lon="6.39287">
        <ele>309.60000610352</ele>
        <time>2013-08-15T08:28:58Z</time>
      </trkpt>
      <trkpt lat="43.2395" lon="6.39301">
        <ele>310.39999389648</ele>
        <time>2013-08-15T08:29:16Z</time>
      </trkpt>
      <trkpt lat="43.23945" lon="6.39317">
        <ele>316.79998779297</ele>
        <time>2013-08-15T08:29:38Z</time>
      </trkpt>
      <trkpt lat="43.23952" lon="6.39325">
        <ele>314.79998779297</ele>
        <time>2013-08-15T08:29:59Z</time>
      </trkpt>
      <trkpt lat="43.23954" lon="6.39336">
        <ele>317</ele>
        <time>2013-08-15T08:30:19Z</time>
      </trkpt>
      <trkpt lat="43.2396" lon="6.39342">
        <ele>316.39999389648</ele>
        <time>2013-08-15T08:30:39Z</time>
      </trkpt>
      <trkpt lat="43.23959" lon="6.39347">
        <ele>318.39999389648</ele>
        <time>2013-08-15T08:30:56Z</time>
      </trkpt>
      <trkpt lat="43.23954" lon="6.39347">
        <ele>320.60000610352</ele>
        <time>2013-08-15T08:31:28Z</time>
      </trkpt>
      <trkpt lat="43.23956" lon="6.39358">
        <ele>323.79998779297</ele>
        <time>2013-08-15T08:31:52Z</time>
      </trkpt>
      <trkpt lat="43.23958" lon="6.39367">
        <ele>325.60000610352</ele>
        <time>2013-08-15T08:32:10Z</time>
      </trkpt>
      <trkpt lat="43.23958" lon="6.39379">
        <ele>329.79998779297</ele>
        <time>2013-08-15T08:32:29Z</time>
      </trkpt>
      <trkpt lat="43.23958" lon="6.3939">
        <ele>333.79998779297</ele>
        <time>2013-08-15T08:32:47Z</time>
      </trkpt>
      <trkpt lat="43.23966" lon="6.39403">
        <ele>335.20001220703</ele>
        <time>2013-08-15T08:33:07Z</time>
      </trkpt>
      <trkpt lat="43.23968" lon="6.39417">
        <ele>339</ele>
        <time>2013-08-15T08:33:26Z</time>
      </trkpt>
      <trkpt lat="43.23976" lon="6.3943">
        <ele>340.60000610352</ele>
        <time>2013-08-15T08:33:54Z</time>
      </trkpt>
      <trkpt lat="43.23979" lon="6.39438">
        <ele>342.20001220703</ele>
        <time>2013-08-15T08:34:15Z</time>
      </trkpt>
      <trkpt lat="43.23992" lon="6.39447">
        <ele>340.39999389648</ele>
        <time>2013-08-15T08:34:36Z</time>
      </trkpt>
      <trkpt lat="43.24001" lon="6.39461">
        <ele>342.60000610352</ele>
        <time>2013-08-15T08:34:57Z</time>
      </trkpt>
      <trkpt lat="43.24009" lon="6.39477">
        <ele>346</ele>
        <time>2013-08-15T08:35:18Z</time>
      </trkpt>
      <trkpt lat="43.24008" lon="6.39492">
        <ele>351.79998779297</ele>
        <time>2013-08-15T08:35:37Z</time>
      </trkpt>
      <trkpt lat="43.24007" lon="6.39509">
        <ele>356.60000610352</ele>
        <time>2013-08-15T08:35:58Z</time>
      </trkpt>
      <trkpt lat="43.23989" lon="6.39523">
        <ele>364.60000610352</ele>
        <time>2013-08-15T08:36:18Z</time>
      </trkpt>
      <trkpt lat="43.23993" lon="6.39528">
        <ele>363.79998779297</ele>
        <time>2013-08-15T08:36:34Z</time>
      </trkpt>
      <trkpt lat="43.24002" lon="6.39541">
        <ele>362.79998779297</ele>
        <time>2013-08-15T08:36:58Z</time>
      </trkpt>
      <trkpt lat="43.24014" lon="6.39557">
        <ele>361.20001220703</ele>
        <time>2013-08-15T08:37:13Z</time>
      </trkpt>
      <trkpt lat="43.24017" lon="6.39573">
        <ele>362.20001220703</ele>
        <time>2013-08-15T08:37:26Z</time>
      </trkpt>
      <trkpt lat="43.24023" lon="6.39597">
        <ele>361.20001220703</ele>
        <time>2013-08-15T08:37:52Z</time>
      </trkpt>
      <trkpt lat="43.24025" lon="6.39611">
        <ele>359.39999389648</ele>
        <time>2013-08-15T08:38:13Z</time>
      </trkpt>
      <trkpt lat="43.2402" lon="6.39627">
        <ele>360.39999389648</ele>
        <time>2013-08-15T08:38:32Z</time>
      </trkpt>
      <trkpt lat="43.24012" lon="6.39625">
        <ele>363.20001220703</ele>
        <time>2013-08-15T08:38:54Z</time>
      </trkpt>
      <trkpt lat="43.24002" lon="6.39641">
        <ele>365.79998779297</ele>
        <time>2013-08-15T08:39:16Z</time>
      </trkpt>
      <trkpt lat="43.23992" lon="6.3964">
        <ele>368.20001220703</ele>
        <time>2013-08-15T08:39:37Z</time>
      </trkpt>
      <trkpt lat="43.23986" lon="6.3964">
        <ele>369.79998779297</ele>
        <time>2013-08-15T08:39:46Z</time>
      </trkpt>
      <trkpt lat="43.23962" lon="6.39655">
        <ele>374.60000610352</ele>
        <time>2013-08-15T08:40:11Z</time>
      </trkpt>
      <trkpt lat="43.23958" lon="6.3966">
        <ele>375.20001220703</ele>
        <time>2013-08-15T08:40:18Z</time>
      </trkpt>
      <trkpt lat="43.23941" lon="6.39683">
        <ele>375</ele>
        <time>2013-08-15T08:40:41Z</time>
      </trkpt>
      <trkpt lat="43.23935" lon="6.3967">
        <ele>379.79998779297</ele>
        <time>2013-08-15T08:40:59Z</time>
      </trkpt>
      <trkpt lat="43.23922" lon="6.39684">
        <ele>380.20001220703</ele>
        <time>2013-08-15T08:41:19Z</time>
      </trkpt>
      <trkpt lat="43.23914" lon="6.39697">
        <ele>379.79998779297</ele>
        <time>2013-08-15T08:41:39Z</time>
      </trkpt>
      <trkpt lat="43.23906" lon="6.39723">
        <ele>377.79998779297</ele>
        <time>2013-08-15T08:42:00Z</time>
      </trkpt>
      <trkpt lat="43.23888" lon="6.39748">
        <ele>379.79998779297</ele>
        <time>2013-08-15T08:42:23Z</time>
      </trkpt>
      <trkpt lat="43.2388" lon="6.39769">
        <ele>376.20001220703</ele>
        <time>2013-08-15T08:42:46Z</time>
      </trkpt>
      <trkpt lat="43.23867" lon="6.39788">
        <ele>374.60000610352</ele>
        <time>2013-08-15T08:43:11Z</time>
      </trkpt>
      <trkpt lat="43.23854" lon="6.39798">
        <ele>375.60000610352</ele>
        <time>2013-08-15T08:43:32Z</time>
      </trkpt>
      <trkpt lat="43.23836" lon="6.3981">
        <ele>377.20001220703</ele>
        <time>2013-08-15T08:43:56Z</time>
      </trkpt>
      <trkpt lat="43.23814" lon="6.3981">
        <ele>380.60000610352</ele>
        <time>2013-08-15T08:44:19Z</time>
      </trkpt>
      <trkpt lat="43.23793" lon="6.3981">
        <ele>383.79998779297</ele>
        <time>2013-08-15T08:44:42Z</time>
      </trkpt>
      <trkpt lat="43.23777" lon="6.3981">
        <ele>385.79998779297</ele>
        <time>2013-08-15T08:45:01Z</time>
      </trkpt>
      <trkpt lat="43.23765" lon="6.39816">
        <ele>385.39999389648</ele>
        <time>2013-08-15T08:45:20Z</time>
      </trkpt>
      <trkpt lat="43.23754" lon="6.39817">
        <ele>386.39999389648</ele>
        <time>2013-08-15T08:45:37Z</time>
      </trkpt>
      <trkpt lat="43.23745" lon="6.3982">
        <ele>387</ele>
        <time>2013-08-15T08:45:54Z</time>
      </trkpt>
      <trkpt lat="43.23728" lon="6.39825">
        <ele>390</ele>
        <time>2013-08-15T08:46:18Z</time>
      </trkpt>
      <trkpt lat="43.23716" lon="6.39839">
        <ele>388</ele>
        <time>2013-08-15T08:46:31Z</time>
      </trkpt>
      <trkpt lat="43.23717" lon="6.39831">
        <ele>390.60000610352</ele>
        <time>2013-08-15T08:46:56Z</time>
      </trkpt>
      <trkpt lat="43.23724" lon="6.39833">
        <ele>388</ele>
        <time>2013-08-15T08:47:11Z</time>
      </trkpt>
      <trkpt lat="43.23719" lon="6.39837">
        <ele>388</ele>
        <time>2013-08-15T08:47:28Z</time>
      </trkpt>
      <trkpt lat="43.2371" lon="6.39842">
        <ele>388.79998779297</ele>
        <time>2013-08-15T08:47:46Z</time>
      </trkpt>
      <trkpt lat="43.2369" lon="6.3985">
        <ele>391.79998779297</ele>
        <time>2013-08-15T08:48:09Z</time>
      </trkpt>
      <trkpt lat="43.2368" lon="6.3985">
        <ele>394.20001220703</ele>
        <time>2013-08-15T08:48:31Z</time>
      </trkpt>
      <trkpt lat="43.23665" lon="6.39861">
        <ele>395.20001220703</ele>
        <time>2013-08-15T08:48:52Z</time>
      </trkpt>
      <trkpt lat="43.23656" lon="6.39878">
        <ele>392.20001220703</ele>
        <time>2013-08-15T08:49:12Z</time>
      </trkpt>
      <trkpt lat="43.23652" lon="6.39886">
        <ele>391</ele>
        <time>2013-08-15T08:49:31Z</time>
      </trkpt>
      <trkpt lat="43.23639" lon="6.39889">
        <ele>393.39999389648</ele>
        <time>2013-08-15T08:49:47Z</time>
      </trkpt>
      <trkpt lat="43.23637" lon="6.39882">
        <ele>396</ele>
        <time>2013-08-15T08:50:05Z</time>
      </trkpt>
      <trkpt lat="43.23626" lon="6.39897">
        <ele>394.39999389648</ele>
        <time>2013-08-15T08:50:23Z</time>
      </trkpt>
      <trkpt lat="43.23622" lon="6.39912">
        <ele>391.20001220703</ele>
        <time>2013-08-15T08:50:40Z</time>
      </trkpt>
      <trkpt lat="43.23608" lon="6.39921">
        <ele>393</ele>
        <time>2013-08-15T08:51:00Z</time>
      </trkpt>
      <trkpt lat="43.236" lon="6.39922">
        <ele>395.20001220703</ele>
        <time>2013-08-15T08:51:20Z</time>
      </trkpt>
      <trkpt lat="43.23603" lon="6.39927">
        <ele>394</ele>
        <time>2013-08-15T08:51:45Z</time>
      </trkpt>
      <trkpt lat="43.23606" lon="6.39925">
        <ele>393.20001220703</ele>
        <time>2013-08-15T08:52:18Z</time>
      </trkpt>
      <trkpt lat="43.23601" lon="6.39924">
        <ele>394.79998779297</ele>
        <time>2013-08-15T08:52:42Z</time>
      </trkpt>
      <trkpt lat="43.23601" lon="6.39921">
        <ele>394.79998779297</ele>
        <time>2013-08-15T08:53:08Z</time>
      </trkpt>
      <trkpt lat="43.23585" lon="6.39915">
        <ele>400</ele>
        <time>2013-08-15T08:53:30Z</time>
      </trkpt>
      <trkpt lat="43.23575" lon="6.39921">
        <ele>400.39999389648</ele>
        <time>2013-08-15T08:53:48Z</time>
      </trkpt>
      <trkpt lat="43.23563" lon="6.39909">
        <ele>403.79998779297</ele>
        <time>2013-08-15T08:54:11Z</time>
      </trkpt>
      <trkpt lat="43.23548" lon="6.399">
        <ele>407.39999389648</ele>
        <time>2013-08-15T08:54:36Z</time>
      </trkpt>
      <trkpt lat="43.23542" lon="6.39897">
        <ele>408.60000610352</ele>
        <time>2013-08-15T08:54:45Z</time>
      </trkpt>
      <trkpt lat="43.23526" lon="6.39891">
        <ele>410.79998779297</ele>
        <time>2013-08-15T08:55:07Z</time>
      </trkpt>
      <trkpt lat="43.23522" lon="6.39889">
        <ele>411.39999389648</ele>
        <time>2013-08-15T08:55:24Z</time>
      </trkpt>
      <trkpt lat="43.23514" lon="6.39908">
        <ele>408.79998779297</ele>
        <time>2013-08-15T08:55:46Z</time>
      </trkpt>
      <trkpt lat="43.23496" lon="6.39918">
        <ele>411</ele>
        <time>2013-08-15T08:56:13Z</time>
      </trkpt>
      <trkpt lat="43.23502" lon="6.39935">
        <ele>410</ele>
        <time>2013-08-15T08:56:32Z</time>
      </trkpt>
      <trkpt lat="43.23492" lon="6.39933">
        <ele>413.60000610352</ele>
        <time>2013-08-15T08:56:53Z</time>
      </trkpt>
      <trkpt lat="43.23489" lon="6.39922">
        <ele>414.20001220703</ele>
        <time>2013-08-15T08:57:16Z</time>
      </trkpt>
      <trkpt lat="43.23494" lon="6.3991">
        <ele>412.60000610352</ele>
        <time>2013-08-15T08:57:40Z</time>
      </trkpt>
      <trkpt lat="43.23481" lon="6.39919">
        <ele>417.39999389648</ele>
        <time>2013-08-15T08:58:04Z</time>
      </trkpt>
      <trkpt lat="43.23484" lon="6.39935">
        <ele>417.39999389648</ele>
        <time>2013-08-15T08:58:25Z</time>
      </trkpt>
      <trkpt lat="43.23493" lon="6.39962">
        <ele>415.39999389648</ele>
        <time>2013-08-15T08:58:43Z</time>
      </trkpt>
      <trkpt lat="43.23498" lon="6.39981">
        <ele>414.39999389648</ele>
        <time>2013-08-15T08:59:00Z</time>
      </trkpt>
      <trkpt lat="43.235" lon="6.39985">
        <ele>413.79998779297</ele>
        <time>2013-08-15T08:59:20Z</time>
      </trkpt>
      <trkpt lat="43.235" lon="6.4">
        <ele>414.79998779297</ele>
        <time>2013-08-15T08:59:41Z</time>
      </trkpt>
      <trkpt lat="43.23501" lon="6.40012">
        <ele>416.39999389648</ele>
        <time>2013-08-15T09:00:02Z</time>
      </trkpt>
      <trkpt lat="43.23496" lon="6.40012">
        <ele>418.39999389648</ele>
        <time>2013-08-15T09:00:16Z</time>
      </trkpt>
      <trkpt lat="43.23489" lon="6.40009">
        <ele>421.20001220703</ele>
        <time>2013-08-15T09:00:29Z</time>
      </trkpt>
      <trkpt lat="43.23484" lon="6.40003">
        <ele>422.60000610352</ele>
        <time>2013-08-15T09:00:44Z</time>
      </trkpt>
      <trkpt lat="43.23473" lon="6.39993">
        <ele>426.79998779297</ele>
        <time>2013-08-15T09:01:03Z</time>
      </trkpt>
      <trkpt lat="43.23458" lon="6.3998">
        <ele>432.39999389648</ele>
        <time>2013-08-15T09:01:24Z</time>
      </trkpt>
      <trkpt lat="43.23463" lon="6.4">
        <ele>431.79998779297</ele>
        <time>2013-08-15T09:01:41Z</time>
      </trkpt>
      <trkpt lat="43.23474" lon="6.40024">
        <ele>429.39999389648</ele>
        <time>2013-08-15T09:02:05Z</time>
      </trkpt>
      <trkpt lat="43.23477" lon="6.40032">
        <ele>429</ele>
        <time>2013-08-15T09:02:14Z</time>
      </trkpt>
      <trkpt lat="43.23482" lon="6.40039">
        <ele>428</ele>
        <time>2013-08-15T09:02:29Z</time>
      </trkpt>
      <trkpt lat="43.23485" lon="6.40036">
        <ele>426</ele>
        <time>2013-08-15T09:02:48Z</time>
      </trkpt>
      <trkpt lat="43.23494" lon="6.40041">
        <ele>423.39999389648</ele>
        <time>2013-08-15T09:03:01Z</time>
      </trkpt>
      <trkpt lat="43.23495" lon="6.40044">
        <ele>423.39999389648</ele>
        <time>2013-08-15T09:03:05Z</time>
      </trkpt>
      <trkpt lat="43.23499" lon="6.40054">
        <ele>423</ele>
        <time>2013-08-15T09:03:13Z</time>
      </trkpt>
      <trkpt lat="43.23498" lon="6.40069">
        <ele>425.79998779297</ele>
        <time>2013-08-15T09:03:27Z</time>
      </trkpt>
      <trkpt lat="43.23501" lon="6.40085">
        <ele>426.39999389648</ele>
        <time>2013-08-15T09:03:40Z</time>
      </trkpt>
      <trkpt lat="43.23501" lon="6.4011">
        <ele>423</ele>
        <time>2013-08-15T09:03:59Z</time>
      </trkpt>
      <trkpt lat="43.23493" lon="6.40119">
        <ele>424</ele>
        <time>2013-08-15T09:04:22Z</time>
      </trkpt>
      <trkpt lat="43.2349" lon="6.4012">
        <ele>425</ele>
        <time>2013-08-15T09:04:26Z</time>
      </trkpt>
      <trkpt lat="43.23484" lon="6.40132">
        <ele>424.79998779297</ele>
        <time>2013-08-15T09:04:36Z</time>
      </trkpt>
      <trkpt lat="43.23494" lon="6.40141">
        <ele>420.60000610352</ele>
        <time>2013-08-15T09:04:42Z</time>
      </trkpt>
      <trkpt lat="43.23495" lon="6.40146">
        <ele>419.20001220703</ele>
        <time>2013-08-15T09:04:47Z</time>
      </trkpt>
      <trkpt lat="43.23497" lon="6.40151">
        <ele>418</ele>
        <time>2013-08-15T09:04:53Z</time>
      </trkpt>
      <trkpt lat="43.23492" lon="6.40156">
        <ele>418.60000610352</ele>
        <time>2013-08-15T09:05:14Z</time>
      </trkpt>
      <trkpt lat="43.23489" lon="6.40157">
        <ele>419.20001220703</ele>
        <time>2013-08-15T09:05:37Z</time>
      </trkpt>
      <trkpt lat="43.23467" lon="6.40149">
        <ele>426.79998779297</ele>
        <time>2013-08-15T09:06:00Z</time>
      </trkpt>
      <trkpt lat="43.23475" lon="6.40151">
        <ele>424.20001220703</ele>
        <time>2013-08-15T09:06:19Z</time>
      </trkpt>
      <trkpt lat="43.23481" lon="6.40152">
        <ele>422.39999389648</ele>
        <time>2013-08-15T09:06:47Z</time>
      </trkpt>
      <trkpt lat="43.2348" lon="6.40158">
        <ele>421.60000610352</ele>
        <time>2013-08-15T09:07:20Z</time>
      </trkpt>
      <trkpt lat="43.23479" lon="6.40154">
        <ele>422.60000610352</ele>
        <time>2013-08-15T09:07:46Z</time>
      </trkpt>
      <trkpt lat="43.23481" lon="6.40153">
        <ele>422.20001220703</ele>
        <time>2013-08-15T09:08:27Z</time>
      </trkpt>
      <trkpt lat="43.23479" lon="6.40154">
        <ele>422.60000610352</ele>
        <time>2013-08-15T09:09:02Z</time>
      </trkpt>
      <trkpt lat="43.23471" lon="6.40151">
        <ele>425.39999389648</ele>
        <time>2013-08-15T09:09:46Z</time>
      </trkpt>
      <trkpt lat="43.23471" lon="6.40152">
        <ele>425</ele>
        <time>2013-08-15T09:10:21Z</time>
      </trkpt>
      <trkpt lat="43.23477" lon="6.40156">
        <ele>423</ele>
        <time>2013-08-15T09:10:43Z</time>
      </trkpt>
      <trkpt lat="43.23482" lon="6.4016">
        <ele>420.79998779297</ele>
        <time>2013-08-15T09:11:10Z</time>
      </trkpt>
      <trkpt lat="43.23475" lon="6.40153">
        <ele>423.60000610352</ele>
        <time>2013-08-15T09:11:32Z</time>
      </trkpt>
      <trkpt lat="43.23469" lon="6.40151">
        <ele>425.79998779297</ele>
        <time>2013-08-15T09:12:00Z</time>
      </trkpt>
      <trkpt lat="43.23469" lon="6.40153">
        <ele>425.60000610352</ele>
        <time>2013-08-15T09:12:29Z</time>
      </trkpt>
      <trkpt lat="43.23469" lon="6.40154">
        <ele>425.20001220703</ele>
        <time>2013-08-15T09:12:51Z</time>
      </trkpt>
      <trkpt lat="43.23456" lon="6.40144">
        <ele>431.20001220703</ele>
        <time>2013-08-15T09:13:33Z</time>
      </trkpt>
      <trkpt lat="43.23458" lon="6.40147">
        <ele>429.79998779297</ele>
        <time>2013-08-15T09:14:06Z</time>
      </trkpt>
      <trkpt lat="43.23472" lon="6.40151">
        <ele>425.20001220703</ele>
        <time>2013-08-15T09:14:34Z</time>
      </trkpt>
      <trkpt lat="43.23468" lon="6.40153">
        <ele>425.79998779297</ele>
        <time>2013-08-15T09:15:05Z</time>
      </trkpt>
      <trkpt lat="43.2347" lon="6.4015">
        <ele>425.79998779297</ele>
        <time>2013-08-15T09:15:14Z</time>
      </trkpt>
      <trkpt lat="43.23471" lon="6.40148">
        <ele>426</ele>
        <time>2013-08-15T09:15:17Z</time>
      </trkpt>
      <trkpt lat="43.23473" lon="6.40147">
        <ele>425.60000610352</ele>
        <time>2013-08-15T09:15:30Z</time>
      </trkpt>
      <trkpt lat="43.23467" lon="6.40153">
        <ele>426.20001220703</ele>
        <time>2013-08-15T09:15:44Z</time>
      </trkpt>
      <trkpt lat="43.23457" lon="6.4016">
        <ele>427.39999389648</ele>
        <time>2013-08-15T09:16:01Z</time>
      </trkpt>
      <trkpt lat="43.23444" lon="6.4017">
        <ele>428.79998779297</ele>
        <time>2013-08-15T09:16:19Z</time>
      </trkpt>
      <trkpt lat="43.23426" lon="6.40177">
        <ele>431.39999389648</ele>
        <time>2013-08-15T09:16:38Z</time>
      </trkpt>
      <trkpt lat="43.23406" lon="6.40189">
        <ele>435</ele>
        <time>2013-08-15T09:16:57Z</time>
      </trkpt>
      <trkpt lat="43.23391" lon="6.40191">
        <ele>440</ele>
        <time>2013-08-15T09:17:21Z</time>
      </trkpt>
      <trkpt lat="43.23369" lon="6.40197">
        <ele>447.79998779297</ele>
        <time>2013-08-15T09:17:39Z</time>
      </trkpt>
      <trkpt lat="43.23349" lon="6.40206">
        <ele>453.60000610352</ele>
        <time>2013-08-15T09:17:57Z</time>
      </trkpt>
      <trkpt lat="43.23346" lon="6.40234">
        <ele>449</ele>
        <time>2013-08-15T09:18:15Z</time>
      </trkpt>
      <trkpt lat="43.23351" lon="6.40243">
        <ele>444.39999389648</ele>
        <time>2013-08-15T09:18:22Z</time>
      </trkpt>
      <trkpt lat="43.23351" lon="6.40267">
        <ele>441.39999389648</ele>
        <time>2013-08-15T09:18:37Z</time>
      </trkpt>
      <trkpt lat="43.23349" lon="6.4028">
        <ele>441.39999389648</ele>
        <time>2013-08-15T09:19:03Z</time>
      </trkpt>
      <trkpt lat="43.2335" lon="6.4028">
        <ele>440.79998779297</ele>
        <time>2013-08-15T09:19:05Z</time>
      </trkpt>
      <trkpt lat="43.23352" lon="6.40282">
        <ele>440</ele>
        <time>2013-08-15T09:19:07Z</time>
      </trkpt>
      <trkpt lat="43.23359" lon="6.40314">
        <ele>434.20001220703</ele>
        <time>2013-08-15T09:19:32Z</time>
      </trkpt>
      <trkpt lat="43.23364" lon="6.40347">
        <ele>429.60000610352</ele>
        <time>2013-08-15T09:19:57Z</time>
      </trkpt>
      <trkpt lat="43.23364" lon="6.40353">
        <ele>429.79998779297</ele>
        <time>2013-08-15T09:20:08Z</time>
      </trkpt>
      <trkpt lat="43.23351" lon="6.40378">
        <ele>434.79998779297</ele>
        <time>2013-08-15T09:20:26Z</time>
      </trkpt>
      <trkpt lat="43.23349" lon="6.40382">
        <ele>435.79998779297</ele>
        <time>2013-08-15T09:20:29Z</time>
      </trkpt>
      <trkpt lat="43.23344" lon="6.40414">
        <ele>436.79998779297</ele>
        <time>2013-08-15T09:20:49Z</time>
      </trkpt>
      <trkpt lat="43.23337" lon="6.40438">
        <ele>437.20001220703</ele>
        <time>2013-08-15T09:21:04Z</time>
      </trkpt>
      <trkpt lat="43.23331" lon="6.4046">
        <ele>437.79998779297</ele>
        <time>2013-08-15T09:21:21Z</time>
      </trkpt>
      <trkpt lat="43.23316" lon="6.4049">
        <ele>441</ele>
        <time>2013-08-15T09:21:39Z</time>
      </trkpt>
      <trkpt lat="43.23308" lon="6.4051">
        <ele>442.39999389648</ele>
        <time>2013-08-15T09:21:56Z</time>
      </trkpt>
      <trkpt lat="43.23308" lon="6.40528">
        <ele>441.79998779297</ele>
        <time>2013-08-15T09:22:08Z</time>
      </trkpt>
      <trkpt lat="43.23309" lon="6.40559">
        <ele>439.20001220703</ele>
        <time>2013-08-15T09:22:26Z</time>
      </trkpt>
      <trkpt lat="43.23316" lon="6.40587">
        <ele>435.20001220703</ele>
        <time>2013-08-15T09:22:44Z</time>
      </trkpt>
      <trkpt lat="43.23314" lon="6.40614">
        <ele>438.39999389648</ele>
        <time>2013-08-15T09:23:00Z</time>
      </trkpt>
      <trkpt lat="43.23313" lon="6.40636">
        <ele>440.60000610352</ele>
        <time>2013-08-15T09:23:16Z</time>
      </trkpt>
      <trkpt lat="43.23318" lon="6.40649">
        <ele>440.20001220703</ele>
        <time>2013-08-15T09:23:33Z</time>
      </trkpt>
      <trkpt lat="43.23328" lon="6.40664">
        <ele>438.20001220703</ele>
        <time>2013-08-15T09:23:52Z</time>
      </trkpt>
      <trkpt lat="43.23333" lon="6.40674">
        <ele>438.39999389648</ele>
        <time>2013-08-15T09:24:05Z</time>
      </trkpt>
      <trkpt lat="43.23363" lon="6.40693">
        <ele>434.79998779297</ele>
        <time>2013-08-15T09:24:26Z</time>
      </trkpt>
      <trkpt lat="43.23384" lon="6.40707">
        <ele>432.60000610352</ele>
        <time>2013-08-15T09:24:46Z</time>
      </trkpt>
      <trkpt lat="43.23403" lon="6.40728">
        <ele>432.60000610352</ele>
        <time>2013-08-15T09:25:06Z</time>
      </trkpt>
      <trkpt lat="43.23404" lon="6.4073">
        <ele>433</ele>
        <time>2013-08-15T09:25:08Z</time>
      </trkpt>
      <trkpt lat="43.23422" lon="6.40758">
        <ele>434.20001220703</ele>
        <time>2013-08-15T09:25:29Z</time>
      </trkpt>
      <trkpt lat="43.23429" lon="6.40779">
        <ele>434.60000610352</ele>
        <time>2013-08-15T09:25:44Z</time>
      </trkpt>
      <trkpt lat="43.23439" lon="6.40802">
        <ele>434.39999389648</ele>
        <time>2013-08-15T09:26:00Z</time>
      </trkpt>
      <trkpt lat="43.23443" lon="6.40821">
        <ele>435.60000610352</ele>
        <time>2013-08-15T09:26:14Z</time>
      </trkpt>
      <trkpt lat="43.23446" lon="6.4085">
        <ele>434.60000610352</ele>
        <time>2013-08-15T09:26:31Z</time>
      </trkpt>
      <trkpt lat="43.23445" lon="6.40856">
        <ele>434.20001220703</ele>
        <time>2013-08-15T09:26:35Z</time>
      </trkpt>
      <trkpt lat="43.23434" lon="6.40881">
        <ele>435</ele>
        <time>2013-08-15T09:26:54Z</time>
      </trkpt>
      <trkpt lat="43.23432" lon="6.40882">
        <ele>435.39999389648</ele>
        <time>2013-08-15T09:26:56Z</time>
      </trkpt>
      <trkpt lat="43.23425" lon="6.40884">
        <ele>437</ele>
        <time>2013-08-15T09:27:08Z</time>
      </trkpt>
      <trkpt lat="43.23411" lon="6.40895">
        <ele>439</ele>
        <time>2013-08-15T09:27:26Z</time>
      </trkpt>
      <trkpt lat="43.23397" lon="6.40915">
        <ele>438.39999389648</ele>
        <time>2013-08-15T09:27:45Z</time>
      </trkpt>
      <trkpt lat="43.23376" lon="6.40932">
        <ele>435.79998779297</ele>
        <time>2013-08-15T09:28:06Z</time>
      </trkpt>
      <trkpt lat="43.2337" lon="6.40936">
        <ele>435.20001220703</ele>
        <time>2013-08-15T09:28:26Z</time>
      </trkpt>
      <trkpt lat="43.23371" lon="6.40938">
        <ele>434.60000610352</ele>
        <time>2013-08-15T09:28:50Z</time>
      </trkpt>
      <trkpt lat="43.23377" lon="6.4093">
        <ele>436.39999389648</ele>
        <time>2013-08-15T09:29:10Z</time>
      </trkpt>
      <trkpt lat="43.23376" lon="6.40929">
        <ele>436.79998779297</ele>
        <time>2013-08-15T09:29:31Z</time>
      </trkpt>
      <trkpt lat="43.23396" lon="6.40911">
        <ele>438.79998779297</ele>
        <time>2013-08-15T09:29:51Z</time>
      </trkpt>
      <trkpt lat="43.2341" lon="6.40899">
        <ele>438.79998779297</ele>
        <time>2013-08-15T09:30:05Z</time>
      </trkpt>
      <trkpt lat="43.23423" lon="6.40885">
        <ele>437.60000610352</ele>
        <time>2013-08-15T09:30:19Z</time>
      </trkpt>
      <trkpt lat="43.23427" lon="6.40877">
        <ele>437.39999389648</ele>
        <time>2013-08-15T09:30:25Z</time>
      </trkpt>
      <trkpt lat="43.2343" lon="6.40858">
        <ele>438.39999389648</ele>
        <time>2013-08-15T09:30:37Z</time>
      </trkpt>
      <trkpt lat="43.23429" lon="6.40834">
        <ele>441.20001220703</ele>
        <time>2013-08-15T09:30:51Z</time>
      </trkpt>
      <trkpt lat="43.23427" lon="6.40824">
        <ele>440.79998779297</ele>
        <time>2013-08-15T09:31:00Z</time>
      </trkpt>
      <trkpt lat="43.23419" lon="6.40802">
        <ele>440.39999389648</ele>
        <time>2013-08-15T09:31:16Z</time>
      </trkpt>
      <trkpt lat="43.23411" lon="6.40784">
        <ele>440.20001220703</ele>
        <time>2013-08-15T09:31:31Z</time>
      </trkpt>
      <trkpt lat="43.23409" lon="6.40783">
        <ele>440.39999389648</ele>
        <time>2013-08-15T09:31:42Z</time>
      </trkpt>
      <trkpt lat="43.23407" lon="6.40771">
        <ele>439.79998779297</ele>
        <time>2013-08-15T09:31:57Z</time>
      </trkpt>
      <trkpt lat="43.23405" lon="6.40773">
        <ele>440.20001220703</ele>
        <time>2013-08-15T09:32:28Z</time>
      </trkpt>
      <trkpt lat="43.23398" lon="6.40766">
        <ele>441.20001220703</ele>
        <time>2013-08-15T09:32:42Z</time>
      </trkpt>
      <trkpt lat="43.23389" lon="6.40761">
        <ele>442.60000610352</ele>
        <time>2013-08-15T09:32:52Z</time>
      </trkpt>
      <trkpt lat="43.2337" lon="6.40753">
        <ele>446.39999389648</ele>
        <time>2013-08-15T09:33:09Z</time>
      </trkpt>
      <trkpt lat="43.23351" lon="6.40741">
        <ele>448.39999389648</ele>
        <time>2013-08-15T09:33:27Z</time>
      </trkpt>
      <trkpt lat="43.23336" lon="6.40735">
        <ele>451.20001220703</ele>
        <time>2013-08-15T09:33:44Z</time>
      </trkpt>
      <trkpt lat="43.23314" lon="6.40733">
        <ele>453</ele>
        <time>2013-08-15T09:34:03Z</time>
      </trkpt>
      <trkpt lat="43.23297" lon="6.40719">
        <ele>453.39999389648</ele>
        <time>2013-08-15T09:34:21Z</time>
      </trkpt>
      <trkpt lat="43.23286" lon="6.40701">
        <ele>454</ele>
        <time>2013-08-15T09:34:36Z</time>
      </trkpt>
      <trkpt lat="43.23285" lon="6.40698">
        <ele>454.20001220703</ele>
        <time>2013-08-15T09:34:38Z</time>
      </trkpt>
      <trkpt lat="43.23274" lon="6.4067">
        <ele>456.20001220703</ele>
        <time>2013-08-15T09:34:57Z</time>
      </trkpt>
      <trkpt lat="43.23262" lon="6.40644">
        <ele>459.79998779297</ele>
        <time>2013-08-15T09:35:16Z</time>
      </trkpt>
      <trkpt lat="43.23258" lon="6.4063">
        <ele>461.20001220703</ele>
        <time>2013-08-15T09:35:30Z</time>
      </trkpt>
      <trkpt lat="43.23256" lon="6.40633">
        <ele>462</ele>
        <time>2013-08-15T09:35:33Z</time>
      </trkpt>
      <trkpt lat="43.23255" lon="6.40662">
        <ele>462.39999389648</ele>
        <time>2013-08-15T09:35:53Z</time>
      </trkpt>
      <trkpt lat="43.23261" lon="6.40683">
        <ele>459.79998779297</ele>
        <time>2013-08-15T09:36:06Z</time>
      </trkpt>
      <trkpt lat="43.23264" lon="6.40696">
        <ele>458.79998779297</ele>
        <time>2013-08-15T09:36:14Z</time>
      </trkpt>
      <trkpt lat="43.23261" lon="6.40723">
        <ele>458.39999389648</ele>
        <time>2013-08-15T09:36:31Z</time>
      </trkpt>
      <trkpt lat="43.23252" lon="6.40735">
        <ele>458.79998779297</ele>
        <time>2013-08-15T09:36:45Z</time>
      </trkpt>
      <trkpt lat="43.23238" lon="6.40721">
        <ele>458.60000610352</ele>
        <time>2013-08-15T09:37:02Z</time>
      </trkpt>
      <trkpt lat="43.23226" lon="6.40696">
        <ele>461.20001220703</ele>
        <time>2013-08-15T09:37:21Z</time>
      </trkpt>
      <trkpt lat="43.23224" lon="6.4067">
        <ele>465.60000610352</ele>
        <time>2013-08-15T09:37:38Z</time>
      </trkpt>
      <trkpt lat="43.23224" lon="6.40664">
        <ele>466.39999389648</ele>
        <time>2013-08-15T09:37:42Z</time>
      </trkpt>
      <trkpt lat="43.23226" lon="6.40624">
        <ele>469</ele>
        <time>2013-08-15T09:38:05Z</time>
      </trkpt>
      <trkpt lat="43.23229" lon="6.406">
        <ele>470.20001220703</ele>
        <time>2013-08-15T09:38:23Z</time>
      </trkpt>
      <trkpt lat="43.23227" lon="6.40567">
        <ele>472.79998779297</ele>
        <time>2013-08-15T09:38:44Z</time>
      </trkpt>
      <trkpt lat="43.23224" lon="6.40537">
        <ele>475.39999389648</ele>
        <time>2013-08-15T09:39:05Z</time>
      </trkpt>
      <trkpt lat="43.23213" lon="6.40498">
        <ele>482.39999389648</ele>
        <time>2013-08-15T09:39:30Z</time>
      </trkpt>
      <trkpt lat="43.23213" lon="6.40495">
        <ele>482.79998779297</ele>
        <time>2013-08-15T09:39:32Z</time>
      </trkpt>
      <trkpt lat="43.23214" lon="6.40469">
        <ele>487.20001220703</ele>
        <time>2013-08-15T09:39:49Z</time>
      </trkpt>
      <trkpt lat="43.23219" lon="6.40453">
        <ele>488.20001220703</ele>
        <time>2013-08-15T09:40:12Z</time>
      </trkpt>
      <trkpt lat="43.23227" lon="6.40428">
        <ele>489.60000610352</ele>
        <time>2013-08-15T09:40:28Z</time>
      </trkpt>
      <trkpt lat="43.23236" lon="6.40399">
        <ele>490.39999389648</ele>
        <time>2013-08-15T09:40:52Z</time>
      </trkpt>
      <trkpt lat="43.23246" lon="6.40366">
        <ele>490</ele>
        <time>2013-08-15T09:41:12Z</time>
      </trkpt>
      <trkpt lat="43.23247" lon="6.40347">
        <ele>492</ele>
        <time>2013-08-15T09:41:27Z</time>
      </trkpt>
      <trkpt lat="43.23255" lon="6.4032">
        <ele>490.20001220703</ele>
        <time>2013-08-15T09:41:46Z</time>
      </trkpt>
      <trkpt lat="43.23263" lon="6.40298">
        <ele>487.39999389648</ele>
        <time>2013-08-15T09:42:03Z</time>
      </trkpt>
      <trkpt lat="43.23264" lon="6.40272">
        <ele>489.20001220703</ele>
        <time>2013-08-15T09:42:21Z</time>
      </trkpt>
      <trkpt lat="43.23252" lon="6.40234">
        <ele>499.60000610352</ele>
        <time>2013-08-15T09:42:44Z</time>
      </trkpt>
      <trkpt lat="43.23254" lon="6.4023">
        <ele>499</ele>
        <time>2013-08-15T09:42:47Z</time>
      </trkpt>
      <trkpt lat="43.23255" lon="6.40222">
        <ele>499.79998779297</ele>
        <time>2013-08-15T09:42:53Z</time>
      </trkpt>
      <trkpt lat="43.23251" lon="6.40198">
        <ele>505.20001220703</ele>
        <time>2013-08-15T09:43:09Z</time>
      </trkpt>
      <trkpt lat="43.23256" lon="6.40191">
        <ele>503.79998779297</ele>
        <time>2013-08-15T09:43:14Z</time>
      </trkpt>
      <trkpt lat="43.23265" lon="6.40164">
        <ele>503.39999389648</ele>
        <time>2013-08-15T09:43:35Z</time>
      </trkpt>
      <trkpt lat="43.23288" lon="6.40155">
        <ele>493.79998779297</ele>
        <time>2013-08-15T09:43:56Z</time>
      </trkpt>
      <trkpt lat="43.23299" lon="6.4012">
        <ele>496.60000610352</ele>
        <time>2013-08-15T09:44:18Z</time>
      </trkpt>
      <trkpt lat="43.233" lon="6.40116">
        <ele>497</ele>
        <time>2013-08-15T09:44:20Z</time>
      </trkpt>
      <trkpt lat="43.23307" lon="6.40099">
        <ele>497.79998779297</ele>
        <time>2013-08-15T09:44:31Z</time>
      </trkpt>
      <trkpt lat="43.23325" lon="6.40085">
        <ele>492.39999389648</ele>
        <time>2013-08-15T09:44:46Z</time>
      </trkpt>
      <trkpt lat="43.23333" lon="6.40067">
        <ele>488.39999389648</ele>
        <time>2013-08-15T09:44:59Z</time>
      </trkpt>
      <trkpt lat="43.23323" lon="6.40041">
        <ele>491.60000610352</ele>
        <time>2013-08-15T09:45:19Z</time>
      </trkpt>
      <trkpt lat="43.23316" lon="6.40021">
        <ele>494.39999389648</ele>
        <time>2013-08-15T09:45:35Z</time>
      </trkpt>
      <trkpt lat="43.23306" lon="6.40004">
        <ele>498.20001220703</ele>
        <time>2013-08-15T09:45:51Z</time>
      </trkpt>
      <trkpt lat="43.23298" lon="6.39998">
        <ele>501.79998779297</ele>
        <time>2013-08-15T09:45:59Z</time>
      </trkpt>
      <trkpt lat="43.23279" lon="6.3998">
        <ele>510.20001220703</ele>
        <time>2013-08-15T09:46:18Z</time>
      </trkpt>
      <trkpt lat="43.2326" lon="6.39957">
        <ele>517.40002441406</ele>
        <time>2013-08-15T09:46:38Z</time>
      </trkpt>
      <trkpt lat="43.23265" lon="6.39932">
        <ele>514</ele>
        <time>2013-08-15T09:46:57Z</time>
      </trkpt>
      <trkpt lat="43.2328" lon="6.3993">
        <ele>507.39999389648</ele>
        <time>2013-08-15T09:47:07Z</time>
      </trkpt>
      <trkpt lat="43.23298" lon="6.39916">
        <ele>498.39999389648</ele>
        <time>2013-08-15T09:47:27Z</time>
      </trkpt>
      <trkpt lat="43.23306" lon="6.39904">
        <ele>495.79998779297</ele>
        <time>2013-08-15T09:47:35Z</time>
      </trkpt>
      <trkpt lat="43.23326" lon="6.39888">
        <ele>488.79998779297</ele>
        <time>2013-08-15T09:47:57Z</time>
      </trkpt>
      <trkpt lat="43.23322" lon="6.39889">
        <ele>490.39999389648</ele>
        <time>2013-08-15T09:48:20Z</time>
      </trkpt>
      <trkpt lat="43.23322" lon="6.3989">
        <ele>490.39999389648</ele>
        <time>2013-08-15T09:48:45Z</time>
      </trkpt>
      <trkpt lat="43.23324" lon="6.39881">
        <ele>490.39999389648</ele>
        <time>2013-08-15T09:49:02Z</time>
      </trkpt>
      <trkpt lat="43.23324" lon="6.39872">
        <ele>491</ele>
        <time>2013-08-15T09:49:08Z</time>
      </trkpt>
      <trkpt lat="43.23329" lon="6.39844">
        <ele>491.79998779297</ele>
        <time>2013-08-15T09:49:27Z</time>
      </trkpt>
      <trkpt lat="43.23327" lon="6.39841">
        <ele>492.60000610352</ele>
        <time>2013-08-15T09:49:29Z</time>
      </trkpt>
      <trkpt lat="43.23319" lon="6.39808">
        <ele>494.20001220703</ele>
        <time>2013-08-15T09:49:50Z</time>
      </trkpt>
      <trkpt lat="43.23307" lon="6.39784">
        <ele>496.60000610352</ele>
        <time>2013-08-15T09:50:08Z</time>
      </trkpt>
      <trkpt lat="43.23294" lon="6.39765">
        <ele>499.60000610352</ele>
        <time>2013-08-15T09:50:27Z</time>
      </trkpt>
      <trkpt lat="43.23293" lon="6.39764">
        <ele>500</ele>
        <time>2013-08-15T09:50:29Z</time>
      </trkpt>
      <trkpt lat="43.23282" lon="6.39751">
        <ele>502.39999389648</ele>
        <time>2013-08-15T09:50:41Z</time>
      </trkpt>
      <trkpt lat="43.23281" lon="6.39737">
        <ele>502.79998779297</ele>
        <time>2013-08-15T09:50:49Z</time>
      </trkpt>
      <trkpt lat="43.23285" lon="6.3971">
        <ele>501.60000610352</ele>
        <time>2013-08-15T09:51:08Z</time>
      </trkpt>
      <trkpt lat="43.23287" lon="6.39686">
        <ele>500.60000610352</ele>
        <time>2013-08-15T09:51:24Z</time>
      </trkpt>
      <trkpt lat="43.23291" lon="6.39692">
        <ele>499.20001220703</ele>
        <time>2013-08-15T09:51:37Z</time>
      </trkpt>
      <trkpt lat="43.23291" lon="6.39692">
        <ele>499.20001220703</ele>
        <time>2013-08-15T09:51:38Z</time>
      </trkpt>
      <trkpt lat="43.23289" lon="6.39677">
        <ele>500</ele>
        <time>2013-08-15T09:51:48Z</time>
      </trkpt>
      <trkpt lat="43.23285" lon="6.39653">
        <ele>500.60000610352</ele>
        <time>2013-08-15T09:52:05Z</time>
      </trkpt>
      <trkpt lat="43.2328" lon="6.39623">
        <ele>500.79998779297</ele>
        <time>2013-08-15T09:52:27Z</time>
      </trkpt>
      <trkpt lat="43.23266" lon="6.39601">
        <ele>504.39999389648</ele>
        <time>2013-08-15T09:52:47Z</time>
      </trkpt>
      <trkpt lat="43.23261" lon="6.39596">
        <ele>505.79998779297</ele>
        <time>2013-08-15T09:52:54Z</time>
      </trkpt>
      <trkpt lat="43.23256" lon="6.39585">
        <ele>507</ele>
        <time>2013-08-15T09:53:03Z</time>
      </trkpt>
      <trkpt lat="43.23242" lon="6.39559">
        <ele>506.39999389648</ele>
        <time>2013-08-15T09:53:23Z</time>
      </trkpt>
      <trkpt lat="43.23221" lon="6.39544">
        <ele>508.20001220703</ele>
        <time>2013-08-15T09:53:42Z</time>
      </trkpt>
      <trkpt lat="43.23212" lon="6.39541">
        <ele>509.60000610352</ele>
        <time>2013-08-15T09:53:49Z</time>
      </trkpt>
      <trkpt lat="43.23191" lon="6.39526">
        <ele>511.20001220703</ele>
        <time>2013-08-15T09:54:06Z</time>
      </trkpt>
      <trkpt lat="43.2318" lon="6.39507">
        <ele>510.39999389648</ele>
        <time>2013-08-15T09:54:27Z</time>
      </trkpt>
      <trkpt lat="43.23164" lon="6.39477">
        <ele>510</ele>
        <time>2013-08-15T09:54:45Z</time>
      </trkpt>
      <trkpt lat="43.2316" lon="6.39468">
        <ele>510.20001220703</ele>
        <time>2013-08-15T09:54:51Z</time>
      </trkpt>
      <trkpt lat="43.2315" lon="6.39436">
        <ele>509</ele>
        <time>2013-08-15T09:55:08Z</time>
      </trkpt>
      <trkpt lat="43.23144" lon="6.39415">
        <ele>508.20001220703</ele>
        <time>2013-08-15T09:55:25Z</time>
      </trkpt>
      <trkpt lat="43.23129" lon="6.39395">
        <ele>510.39999389648</ele>
        <time>2013-08-15T09:55:42Z</time>
      </trkpt>
      <trkpt lat="43.23113" lon="6.39384">
        <ele>513.59997558594</ele>
        <time>2013-08-15T09:56:00Z</time>
      </trkpt>
      <trkpt lat="43.23112" lon="6.39383">
        <ele>513.79998779297</ele>
        <time>2013-08-15T09:56:02Z</time>
      </trkpt>
      <trkpt lat="43.23093" lon="6.3937">
        <ele>517.40002441406</ele>
        <time>2013-08-15T09:56:21Z</time>
      </trkpt>
      <trkpt lat="43.2309" lon="6.39363">
        <ele>517.79998779297</ele>
        <time>2013-08-15T09:56:27Z</time>
      </trkpt>
      <trkpt lat="43.23096" lon="6.3932">
        <ele>515</ele>
        <time>2013-08-15T09:56:52Z</time>
      </trkpt>
      <trkpt lat="43.23101" lon="6.39295">
        <ele>513.40002441406</ele>
        <time>2013-08-15T09:57:07Z</time>
      </trkpt>
      <trkpt lat="43.23097" lon="6.39269">
        <ele>514</ele>
        <time>2013-08-15T09:57:24Z</time>
      </trkpt>
      <trkpt lat="43.23091" lon="6.39242">
        <ele>514.79998779297</ele>
        <time>2013-08-15T09:57:41Z</time>
      </trkpt>
      <trkpt lat="43.23087" lon="6.39214">
        <ele>515.59997558594</ele>
        <time>2013-08-15T09:57:57Z</time>
      </trkpt>
      <trkpt lat="43.23087" lon="6.39182">
        <ele>515.79998779297</ele>
        <time>2013-08-15T09:58:15Z</time>
      </trkpt>
      <trkpt lat="43.23081" lon="6.39163">
        <ele>516</ele>
        <time>2013-08-15T09:58:28Z</time>
      </trkpt>
      <trkpt lat="43.23085" lon="6.39146">
        <ele>516</ele>
        <time>2013-08-15T09:58:44Z</time>
      </trkpt>
      <trkpt lat="43.23085" lon="6.39151">
        <ele>516</ele>
        <time>2013-08-15T09:59:02Z</time>
      </trkpt>
      <trkpt lat="43.23081" lon="6.39148">
        <ele>515.79998779297</ele>
        <time>2013-08-15T09:59:20Z</time>
      </trkpt>
      <trkpt lat="43.23074" lon="6.39123">
        <ele>515</ele>
        <time>2013-08-15T09:59:37Z</time>
      </trkpt>
      <trkpt lat="43.23073" lon="6.3911">
        <ele>514.59997558594</ele>
        <time>2013-08-15T09:59:51Z</time>
      </trkpt>
      <trkpt lat="43.2307" lon="6.39104">
        <ele>514</ele>
        <time>2013-08-15T10:00:04Z</time>
      </trkpt>
      <trkpt lat="43.23066" lon="6.39081">
        <ele>512.40002441406</ele>
        <time>2013-08-15T10:00:20Z</time>
      </trkpt>
      <trkpt lat="43.2306" lon="6.3906">
        <ele>511</ele>
        <time>2013-08-15T10:00:34Z</time>
      </trkpt>
      <trkpt lat="43.23053" lon="6.39038">
        <ele>508.79998779297</ele>
        <time>2013-08-15T10:00:47Z</time>
      </trkpt>
      <trkpt lat="43.2305" lon="6.39012">
        <ele>507.39999389648</ele>
        <time>2013-08-15T10:01:02Z</time>
      </trkpt>
      <trkpt lat="43.23045" lon="6.38983">
        <ele>505.20001220703</ele>
        <time>2013-08-15T10:01:20Z</time>
      </trkpt>
      <trkpt lat="43.23044" lon="6.38958">
        <ele>504.60000610352</ele>
        <time>2013-08-15T10:01:37Z</time>
      </trkpt>
      <trkpt lat="43.23042" lon="6.38932">
        <ele>503</ele>
        <time>2013-08-15T10:01:54Z</time>
      </trkpt>
      <trkpt lat="43.23038" lon="6.38905">
        <ele>502.39999389648</ele>
        <time>2013-08-15T10:02:09Z</time>
      </trkpt>
      <trkpt lat="43.23034" lon="6.38874">
        <ele>502.79998779297</ele>
        <time>2013-08-15T10:02:28Z</time>
      </trkpt>
      <trkpt lat="43.2303" lon="6.38845">
        <ele>503.60000610352</ele>
        <time>2013-08-15T10:02:45Z</time>
      </trkpt>
      <trkpt lat="43.23027" lon="6.3883">
        <ele>504</ele>
        <time>2013-08-15T10:02:56Z</time>
      </trkpt>
      <trkpt lat="43.23007" lon="6.38801">
        <ele>502.20001220703</ele>
        <time>2013-08-15T10:03:18Z</time>
      </trkpt>
      <trkpt lat="43.22991" lon="6.38778">
        <ele>500.60000610352</ele>
        <time>2013-08-15T10:03:37Z</time>
      </trkpt>
      <trkpt lat="43.22974" lon="6.38758">
        <ele>497</ele>
        <time>2013-08-15T10:03:56Z</time>
      </trkpt>
      <trkpt lat="43.22967" lon="6.38749">
        <ele>495.20001220703</ele>
        <time>2013-08-15T10:04:06Z</time>
      </trkpt>
      <trkpt lat="43.22954" lon="6.38722">
        <ele>491.39999389648</ele>
        <time>2013-08-15T10:04:26Z</time>
      </trkpt>
      <trkpt lat="43.22947" lon="6.38694">
        <ele>490.60000610352</ele>
        <time>2013-08-15T10:04:44Z</time>
      </trkpt>
      <trkpt lat="43.22943" lon="6.38664">
        <ele>491</ele>
        <time>2013-08-15T10:05:01Z</time>
      </trkpt>
      <trkpt lat="43.22939" lon="6.3864">
        <ele>488.79998779297</ele>
        <time>2013-08-15T10:05:18Z</time>
      </trkpt>
      <trkpt lat="43.22939" lon="6.38636">
        <ele>489.20001220703</ele>
        <time>2013-08-15T10:05:20Z</time>
      </trkpt>
      <trkpt lat="43.22937" lon="6.38626">
        <ele>487.79998779297</ele>
        <time>2013-08-15T10:05:27Z</time>
      </trkpt>
      <trkpt lat="43.22937" lon="6.38599">
        <ele>488.20001220703</ele>
        <time>2013-08-15T10:05:42Z</time>
      </trkpt>
      <trkpt lat="43.22936" lon="6.38568">
        <ele>488.79998779297</ele>
        <time>2013-08-15T10:06:00Z</time>
      </trkpt>
      <trkpt lat="43.22935" lon="6.38563">
        <ele>488.60000610352</ele>
        <time>2013-08-15T10:06:05Z</time>
      </trkpt>
      <trkpt lat="43.22925" lon="6.3854">
        <ele>485.60000610352</ele>
        <time>2013-08-15T10:06:22Z</time>
      </trkpt>
      <trkpt lat="43.22918" lon="6.38513">
        <ele>485.20001220703</ele>
        <time>2013-08-15T10:06:38Z</time>
      </trkpt>
      <trkpt lat="43.22915" lon="6.38509">
        <ele>484.60000610352</ele>
        <time>2013-08-15T10:06:43Z</time>
      </trkpt>
      <trkpt lat="43.22901" lon="6.38493">
        <ele>480</ele>
        <time>2013-08-15T10:06:58Z</time>
      </trkpt>
      <trkpt lat="43.22893" lon="6.38476">
        <ele>477.39999389648</ele>
        <time>2013-08-15T10:07:08Z</time>
      </trkpt>
      <trkpt lat="43.22894" lon="6.38471">
        <ele>477.39999389648</ele>
        <time>2013-08-15T10:07:10Z</time>
      </trkpt>
      <trkpt lat="43.22885" lon="6.38451">
        <ele>474.79998779297</ele>
        <time>2013-08-15T10:07:26Z</time>
      </trkpt>
      <trkpt lat="43.22884" lon="6.38449">
        <ele>474.60000610352</ele>
        <time>2013-08-15T10:07:29Z</time>
      </trkpt>
      <trkpt lat="43.22889" lon="6.38429">
        <ele>476.20001220703</ele>
        <time>2013-08-15T10:07:42Z</time>
      </trkpt>
      <trkpt lat="43.22889" lon="6.38426">
        <ele>476.20001220703</ele>
        <time>2013-08-15T10:07:45Z</time>
      </trkpt>
      <trkpt lat="43.22895" lon="6.38411">
        <ele>477</ele>
        <time>2013-08-15T10:07:55Z</time>
      </trkpt>
      <trkpt lat="43.22908" lon="6.38403">
        <ele>479</ele>
        <time>2013-08-15T10:08:09Z</time>
      </trkpt>
      <trkpt lat="43.22922" lon="6.38398">
        <ele>481.60000610352</ele>
        <time>2013-08-15T10:08:24Z</time>
      </trkpt>
      <trkpt lat="43.22928" lon="6.38387">
        <ele>481</ele>
        <time>2013-08-15T10:08:34Z</time>
      </trkpt>
      <trkpt lat="43.22931" lon="6.3836">
        <ele>476.79998779297</ele>
        <time>2013-08-15T10:08:51Z</time>
      </trkpt>
      <trkpt lat="43.22935" lon="6.38349">
        <ele>476.20001220703</ele>
        <time>2013-08-15T10:09:03Z</time>
      </trkpt>
      <trkpt lat="43.22943" lon="6.38324">
        <ele>474</ele>
        <time>2013-08-15T10:09:20Z</time>
      </trkpt>
      <trkpt lat="43.22944" lon="6.38317">
        <ele>473.60000610352</ele>
        <time>2013-08-15T10:09:26Z</time>
      </trkpt>
      <trkpt lat="43.22946" lon="6.38314">
        <ele>473.79998779297</ele>
        <time>2013-08-15T10:09:29Z</time>
      </trkpt>
      <trkpt lat="43.22958" lon="6.38292">
        <ele>473.79998779297</ele>
        <time>2013-08-15T10:09:49Z</time>
      </trkpt>
      <trkpt lat="43.22959" lon="6.38286">
        <ele>473.39999389648</ele>
        <time>2013-08-15T10:10:04Z</time>
      </trkpt>
      <trkpt lat="43.22955" lon="6.3828">
        <ele>471.79998779297</ele>
        <time>2013-08-15T10:10:27Z</time>
      </trkpt>
      <trkpt lat="43.22943" lon="6.38279">
        <ele>469.20001220703</ele>
        <time>2013-08-15T10:10:48Z</time>
      </trkpt>
      <trkpt lat="43.22933" lon="6.38277">
        <ele>466.79998779297</ele>
        <time>2013-08-15T10:11:07Z</time>
      </trkpt>
      <trkpt lat="43.22925" lon="6.38272">
        <ele>464.79998779297</ele>
        <time>2013-08-15T10:11:21Z</time>
      </trkpt>
      <trkpt lat="43.22918" lon="6.38251">
        <ele>461.39999389648</ele>
        <time>2013-08-15T10:11:42Z</time>
      </trkpt>
      <trkpt lat="43.22913" lon="6.38232">
        <ele>458</ele>
        <time>2013-08-15T10:12:00Z</time>
      </trkpt>
      <trkpt lat="43.22914" lon="6.38226">
        <ele>457.79998779297</ele>
        <time>2013-08-15T10:12:23Z</time>
      </trkpt>
      <trkpt lat="43.22913" lon="6.3821">
        <ele>455.79998779297</ele>
        <time>2013-08-15T10:12:43Z</time>
      </trkpt>
      <trkpt lat="43.22909" lon="6.38204">
        <ele>453.79998779297</ele>
        <time>2013-08-15T10:13:06Z</time>
      </trkpt>
      <trkpt lat="43.22907" lon="6.38185">
        <ele>451.39999389648</ele>
        <time>2013-08-15T10:13:23Z</time>
      </trkpt>
      <trkpt lat="43.22905" lon="6.3816">
        <ele>447.60000610352</ele>
        <time>2013-08-15T10:13:42Z</time>
      </trkpt>
      <trkpt lat="43.22901" lon="6.38139">
        <ele>443</ele>
        <time>2013-08-15T10:13:59Z</time>
      </trkpt>
      <trkpt lat="43.2289" lon="6.38118">
        <ele>437.20001220703</ele>
        <time>2013-08-15T10:14:17Z</time>
      </trkpt>
      <trkpt lat="43.22887" lon="6.38106">
        <ele>435</ele>
        <time>2013-08-15T10:14:33Z</time>
      </trkpt>
      <trkpt lat="43.22886" lon="6.38093">
        <ele>433.20001220703</ele>
        <time>2013-08-15T10:14:55Z</time>
      </trkpt>
      <trkpt lat="43.22892" lon="6.38079">
        <ele>431.39999389648</ele>
        <time>2013-08-15T10:15:10Z</time>
      </trkpt>
      <trkpt lat="43.22892" lon="6.38078">
        <ele>431.20001220703</ele>
        <time>2013-08-15T10:15:11Z</time>
      </trkpt>
      <trkpt lat="43.2289" lon="6.38064">
        <ele>427.79998779297</ele>
        <time>2013-08-15T10:15:25Z</time>
      </trkpt>
      <trkpt lat="43.22893" lon="6.38053">
        <ele>425.39999389648</ele>
        <time>2013-08-15T10:15:38Z</time>
      </trkpt>
      <trkpt lat="43.22895" lon="6.38038">
        <ele>421.60000610352</ele>
        <time>2013-08-15T10:15:59Z</time>
      </trkpt>
      <trkpt lat="43.22893" lon="6.38031">
        <ele>420</ele>
        <time>2013-08-15T10:16:11Z</time>
      </trkpt>
      <trkpt lat="43.22893" lon="6.38031">
        <ele>420</ele>
        <time>2013-08-15T10:16:30Z</time>
      </trkpt>
      <trkpt lat="43.22893" lon="6.38024">
        <ele>418.39999389648</ele>
        <time>2013-08-15T10:17:01Z</time>
      </trkpt>
      <trkpt lat="43.22897" lon="6.38014">
        <ele>416</ele>
        <time>2013-08-15T10:17:24Z</time>
      </trkpt>
      <trkpt lat="43.22899" lon="6.38">
        <ele>412.39999389648</ele>
        <time>2013-08-15T10:17:40Z</time>
      </trkpt>
      <trkpt lat="43.22899" lon="6.37997">
        <ele>411.60000610352</ele>
        <time>2013-08-15T10:17:53Z</time>
      </trkpt>
      <trkpt lat="43.22902" lon="6.37994">
        <ele>411</ele>
        <time>2013-08-15T10:18:11Z</time>
      </trkpt>
      <trkpt lat="43.22898" lon="6.37989">
        <ele>409.60000610352</ele>
        <time>2013-08-15T10:18:27Z</time>
      </trkpt>
      <trkpt lat="43.22895" lon="6.37966">
        <ele>403.79998779297</ele>
        <time>2013-08-15T10:18:47Z</time>
      </trkpt>
      <trkpt lat="43.22897" lon="6.37953">
        <ele>400.60000610352</ele>
        <time>2013-08-15T10:19:01Z</time>
      </trkpt>
      <trkpt lat="43.22894" lon="6.37948">
        <ele>399.20001220703</ele>
        <time>2013-08-15T10:19:28Z</time>
      </trkpt>
      <trkpt lat="43.22889" lon="6.37936">
        <ele>396</ele>
        <time>2013-08-15T10:19:42Z</time>
      </trkpt>
      <trkpt lat="43.2289" lon="6.37923">
        <ele>392.60000610352</ele>
        <time>2013-08-15T10:19:54Z</time>
      </trkpt>
      <trkpt lat="43.2289" lon="6.37912">
        <ele>390</ele>
        <time>2013-08-15T10:20:09Z</time>
      </trkpt>
      <trkpt lat="43.2289" lon="6.37903">
        <ele>388.20001220703</ele>
        <time>2013-08-15T10:20:26Z</time>
      </trkpt>
      <trkpt lat="43.22882" lon="6.37892">
        <ele>385.20001220703</ele>
        <time>2013-08-15T10:20:46Z</time>
      </trkpt>
      <trkpt lat="43.22881" lon="6.37882">
        <ele>382.79998779297</ele>
        <time>2013-08-15T10:20:58Z</time>
      </trkpt>
      <trkpt lat="43.22876" lon="6.37873">
        <ele>380.20001220703</ele>
        <time>2013-08-15T10:21:11Z</time>
      </trkpt>
      <trkpt lat="43.22873" lon="6.37867">
        <ele>378.60000610352</ele>
        <time>2013-08-15T10:21:25Z</time>
      </trkpt>
      <trkpt lat="43.22867" lon="6.37862">
        <ele>376.79998779297</ele>
        <time>2013-08-15T10:21:39Z</time>
      </trkpt>
      <trkpt lat="43.22862" lon="6.37857">
        <ele>374.79998779297</ele>
        <time>2013-08-15T10:21:57Z</time>
      </trkpt>
      <trkpt lat="43.22858" lon="6.37842">
        <ele>370.79998779297</ele>
        <time>2013-08-15T10:22:15Z</time>
      </trkpt>
      <trkpt lat="43.22855" lon="6.37826">
        <ele>367</ele>
        <time>2013-08-15T10:22:37Z</time>
      </trkpt>
      <trkpt lat="43.22854" lon="6.37814">
        <ele>364.79998779297</ele>
        <time>2013-08-15T10:22:58Z</time>
      </trkpt>
      <trkpt lat="43.22846" lon="6.37806">
        <ele>362.39999389648</ele>
        <time>2013-08-15T10:23:13Z</time>
      </trkpt>
      <trkpt lat="43.22839" lon="6.37797">
        <ele>359.39999389648</ele>
        <time>2013-08-15T10:23:28Z</time>
      </trkpt>
      <trkpt lat="43.22834" lon="6.37785">
        <ele>356.20001220703</ele>
        <time>2013-08-15T10:23:43Z</time>
      </trkpt>
      <trkpt lat="43.22829" lon="6.37776">
        <ele>354.39999389648</ele>
        <time>2013-08-15T10:23:50Z</time>
      </trkpt>
      <trkpt lat="43.22819" lon="6.37753">
        <ele>350.79998779297</ele>
        <time>2013-08-15T10:24:07Z</time>
      </trkpt>
      <trkpt lat="43.22815" lon="6.37741">
        <ele>350</ele>
        <time>2013-08-15T10:24:22Z</time>
      </trkpt>
      <trkpt lat="43.22813" lon="6.37734">
        <ele>349.79998779297</ele>
        <time>2013-08-15T10:24:40Z</time>
      </trkpt>
      <trkpt lat="43.2281" lon="6.37733">
        <ele>349.79998779297</ele>
        <time>2013-08-15T10:24:58Z</time>
      </trkpt>
      <trkpt lat="43.22806" lon="6.37742">
        <ele>350.39999389648</ele>
        <time>2013-08-15T10:25:11Z</time>
      </trkpt>
      <trkpt lat="43.22796" lon="6.37753">
        <ele>351</ele>
        <time>2013-08-15T10:25:22Z</time>
      </trkpt>
      <trkpt lat="43.2279" lon="6.37758">
        <ele>351.60000610352</ele>
        <time>2013-08-15T10:25:30Z</time>
      </trkpt>
      <trkpt lat="43.22778" lon="6.37771">
        <ele>352.20001220703</ele>
        <time>2013-08-15T10:25:43Z</time>
      </trkpt>
      <trkpt lat="43.22766" lon="6.37787">
        <ele>352.20001220703</ele>
        <time>2013-08-15T10:25:57Z</time>
      </trkpt>
      <trkpt lat="43.22753" lon="6.37795">
        <ele>351</ele>
        <time>2013-08-15T10:26:09Z</time>
      </trkpt>
      <trkpt lat="43.22752" lon="6.37795">
        <ele>351</ele>
        <time>2013-08-15T10:26:10Z</time>
      </trkpt>
      <trkpt lat="43.22743" lon="6.37782">
        <ele>352.60000610352</ele>
        <time>2013-08-15T10:26:22Z</time>
      </trkpt>
      <trkpt lat="43.22752" lon="6.37758">
        <ele>351.60000610352</ele>
        <time>2013-08-15T10:26:40Z</time>
      </trkpt>
      <trkpt lat="43.22762" lon="6.37735">
        <ele>352.60000610352</ele>
        <time>2013-08-15T10:26:59Z</time>
      </trkpt>
      <trkpt lat="43.22772" lon="6.37702">
        <ele>353.79998779297</ele>
        <time>2013-08-15T10:27:20Z</time>
      </trkpt>
      <trkpt lat="43.2278" lon="6.37679">
        <ele>353.39999389648</ele>
        <time>2013-08-15T10:27:36Z</time>
      </trkpt>
      <trkpt lat="43.22794" lon="6.37649">
        <ele>351</ele>
        <time>2013-08-15T10:27:56Z</time>
      </trkpt>
      <trkpt lat="43.22798" lon="6.37626">
        <ele>350.39999389648</ele>
        <time>2013-08-15T10:28:10Z</time>
      </trkpt>
      <trkpt lat="43.22802" lon="6.37605">
        <ele>349.39999389648</ele>
        <time>2013-08-15T10:28:24Z</time>
      </trkpt>
      <trkpt lat="43.22802" lon="6.37582">
        <ele>349.60000610352</ele>
        <time>2013-08-15T10:28:38Z</time>
      </trkpt>
      <trkpt lat="43.22809" lon="6.3757">
        <ele>349</ele>
        <time>2013-08-15T10:28:46Z</time>
      </trkpt>
      <trkpt lat="43.22815" lon="6.37552">
        <ele>349</ele>
        <time>2013-08-15T10:29:00Z</time>
      </trkpt>
      <trkpt lat="43.22815" lon="6.37549">
        <ele>349.20001220703</ele>
        <time>2013-08-15T10:29:02Z</time>
      </trkpt>
      <trkpt lat="43.22823" lon="6.3752">
        <ele>349.60000610352</ele>
        <time>2013-08-15T10:29:20Z</time>
      </trkpt>
      <trkpt lat="43.22825" lon="6.37488">
        <ele>352.39999389648</ele>
        <time>2013-08-15T10:29:42Z</time>
      </trkpt>
      <trkpt lat="43.22831" lon="6.37472">
        <ele>352.79998779297</ele>
        <time>2013-08-15T10:29:53Z</time>
      </trkpt>
      <trkpt lat="43.22847" lon="6.37445">
        <ele>353</ele>
        <time>2013-08-15T10:30:16Z</time>
      </trkpt>
      <trkpt lat="43.22857" lon="6.37414">
        <ele>353.39999389648</ele>
        <time>2013-08-15T10:30:35Z</time>
      </trkpt>
      <trkpt lat="43.22867" lon="6.37396">
        <ele>352.60000610352</ele>
        <time>2013-08-15T10:30:50Z</time>
      </trkpt>
      <trkpt lat="43.22876" lon="6.37368">
        <ele>352.39999389648</ele>
        <time>2013-08-15T10:31:09Z</time>
      </trkpt>
      <trkpt lat="43.22877" lon="6.37359">
        <ele>352.79998779297</ele>
        <time>2013-08-15T10:31:16Z</time>
      </trkpt>
      <trkpt lat="43.2288" lon="6.37327">
        <ele>354.20001220703</ele>
        <time>2013-08-15T10:31:34Z</time>
      </trkpt>
      <trkpt lat="43.22883" lon="6.37303">
        <ele>353.20001220703</ele>
        <time>2013-08-15T10:31:50Z</time>
      </trkpt>
      <trkpt lat="43.22882" lon="6.37297">
        <ele>353.60000610352</ele>
        <time>2013-08-15T10:31:55Z</time>
      </trkpt>
      <trkpt lat="43.2288" lon="6.37283">
        <ele>354.60000610352</ele>
        <time>2013-08-15T10:32:10Z</time>
      </trkpt>
      <trkpt lat="43.22876" lon="6.3726">
        <ele>356</ele>
        <time>2013-08-15T10:32:26Z</time>
      </trkpt>
      <trkpt lat="43.22876" lon="6.37255">
        <ele>356.20001220703</ele>
        <time>2013-08-15T10:32:28Z</time>
      </trkpt>
      <trkpt lat="43.22887" lon="6.37238">
        <ele>352.79998779297</ele>
        <time>2013-08-15T10:32:44Z</time>
      </trkpt>
      <trkpt lat="43.22897" lon="6.37211">
        <ele>351.20001220703</ele>
        <time>2013-08-15T10:33:04Z</time>
      </trkpt>
      <trkpt lat="43.22894" lon="6.37182">
        <ele>354.20001220703</ele>
        <time>2013-08-15T10:33:22Z</time>
      </trkpt>
      <trkpt lat="43.22895" lon="6.3718">
        <ele>354.20001220703</ele>
        <time>2013-08-15T10:33:23Z</time>
      </trkpt>
      <trkpt lat="43.22889" lon="6.37154">
        <ele>358.79998779297</ele>
        <time>2013-08-15T10:33:40Z</time>
      </trkpt>
      <trkpt lat="43.22887" lon="6.37136">
        <ele>361.39999389648</ele>
        <time>2013-08-15T10:33:57Z</time>
      </trkpt>
      <trkpt lat="43.22898" lon="6.37128">
        <ele>358.20001220703</ele>
        <time>2013-08-15T10:34:07Z</time>
      </trkpt>
      <trkpt lat="43.22908" lon="6.37121">
        <ele>355</ele>
        <time>2013-08-15T10:34:11Z</time>
      </trkpt>
      <trkpt lat="43.22913" lon="6.37109">
        <ele>354.39999389648</ele>
        <time>2013-08-15T10:34:21Z</time>
      </trkpt>
      <trkpt lat="43.22922" lon="6.37085">
        <ele>354.39999389648</ele>
        <time>2013-08-15T10:34:40Z</time>
      </trkpt>
      <trkpt lat="43.22942" lon="6.37061">
        <ele>355</ele>
        <time>2013-08-15T10:34:59Z</time>
      </trkpt>
      <trkpt lat="43.22946" lon="6.37054">
        <ele>355.39999389648</ele>
        <time>2013-08-15T10:35:04Z</time>
      </trkpt>
      <trkpt lat="43.22947" lon="6.37049">
        <ele>356.39999389648</ele>
        <time>2013-08-15T10:35:07Z</time>
      </trkpt>
      <trkpt lat="43.22952" lon="6.37018">
        <ele>362</ele>
        <time>2013-08-15T10:35:26Z</time>
      </trkpt>
      <trkpt lat="43.22957" lon="6.37011">
        <ele>362.39999389648</ele>
        <time>2013-08-15T10:35:33Z</time>
      </trkpt>
      <trkpt lat="43.22969" lon="6.36994">
        <ele>363.20001220703</ele>
        <time>2013-08-15T10:35:51Z</time>
      </trkpt>
      <trkpt lat="43.22996" lon="6.36986">
        <ele>358.60000610352</ele>
        <time>2013-08-15T10:36:13Z</time>
      </trkpt>
      <trkpt lat="43.23017" lon="6.3697">
        <ele>357.20001220703</ele>
        <time>2013-08-15T10:36:33Z</time>
      </trkpt>
      <trkpt lat="43.2304" lon="6.36944">
        <ele>357.20001220703</ele>
        <time>2013-08-15T10:36:56Z</time>
      </trkpt>
      <trkpt lat="43.23047" lon="6.36933">
        <ele>357.79998779297</ele>
        <time>2013-08-15T10:37:05Z</time>
      </trkpt>
      <trkpt lat="43.23062" lon="6.36903">
        <ele>360.20001220703</ele>
        <time>2013-08-15T10:37:26Z</time>
      </trkpt>
      <trkpt lat="43.23073" lon="6.36879">
        <ele>361.79998779297</ele>
        <time>2013-08-15T10:37:44Z</time>
      </trkpt>
      <trkpt lat="43.23083" lon="6.3687">
        <ele>360.39999389648</ele>
        <time>2013-08-15T10:37:58Z</time>
      </trkpt>
      <trkpt lat="43.23102" lon="6.36845">
        <ele>360.60000610352</ele>
        <time>2013-08-15T10:38:17Z</time>
      </trkpt>
      <trkpt lat="43.23108" lon="6.36835">
        <ele>361</ele>
        <time>2013-08-15T10:38:27Z</time>
      </trkpt>
      <trkpt lat="43.23126" lon="6.36821">
        <ele>360.20001220703</ele>
        <time>2013-08-15T10:38:47Z</time>
      </trkpt>
      <trkpt lat="43.23129" lon="6.36818">
        <ele>360.20001220703</ele>
        <time>2013-08-15T10:38:50Z</time>
      </trkpt>
      <trkpt lat="43.23145" lon="6.36804">
        <ele>360.60000610352</ele>
        <time>2013-08-15T10:39:08Z</time>
      </trkpt>
      <trkpt lat="43.23162" lon="6.3679">
        <ele>361</ele>
        <time>2013-08-15T10:39:24Z</time>
      </trkpt>
      <trkpt lat="43.23181" lon="6.36766">
        <ele>363.60000610352</ele>
        <time>2013-08-15T10:39:44Z</time>
      </trkpt>
      <trkpt lat="43.2319" lon="6.36762">
        <ele>362.20001220703</ele>
        <time>2013-08-15T10:39:53Z</time>
      </trkpt>
      <trkpt lat="43.23209" lon="6.36751">
        <ele>360</ele>
        <time>2013-08-15T10:40:10Z</time>
      </trkpt>
      <trkpt lat="43.23225" lon="6.3673">
        <ele>358.60000610352</ele>
        <time>2013-08-15T10:40:27Z</time>
      </trkpt>
      <trkpt lat="43.23233" lon="6.36703">
        <ele>360.79998779297</ele>
        <time>2013-08-15T10:40:47Z</time>
      </trkpt>
      <trkpt lat="43.2324" lon="6.36671">
        <ele>364.20001220703</ele>
        <time>2013-08-15T10:41:07Z</time>
      </trkpt>
      <trkpt lat="43.23248" lon="6.36658">
        <ele>363</ele>
        <time>2013-08-15T10:41:18Z</time>
      </trkpt>
      <trkpt lat="43.23263" lon="6.36627">
        <ele>360.60000610352</ele>
        <time>2013-08-15T10:41:37Z</time>
      </trkpt>
      <trkpt lat="43.23264" lon="6.36615">
        <ele>361.39999389648</ele>
        <time>2013-08-15T10:41:49Z</time>
      </trkpt>
      <trkpt lat="43.2327" lon="6.36586">
        <ele>362.60000610352</ele>
        <time>2013-08-15T10:42:05Z</time>
      </trkpt>
      <trkpt lat="43.23284" lon="6.36559">
        <ele>360</ele>
        <time>2013-08-15T10:42:26Z</time>
      </trkpt>
      <trkpt lat="43.233" lon="6.36546">
        <ele>358.39999389648</ele>
        <time>2013-08-15T10:42:37Z</time>
      </trkpt>
      <trkpt lat="43.23304" lon="6.36541">
        <ele>358</ele>
        <time>2013-08-15T10:42:41Z</time>
      </trkpt>
      <trkpt lat="43.23318" lon="6.36517">
        <ele>358</ele>
        <time>2013-08-15T10:42:59Z</time>
      </trkpt>
      <trkpt lat="43.23322" lon="6.36493">
        <ele>357.60000610352</ele>
        <time>2013-08-15T10:43:14Z</time>
      </trkpt>
      <trkpt lat="43.23325" lon="6.36484">
        <ele>356</ele>
        <time>2013-08-15T10:43:28Z</time>
      </trkpt>
      <trkpt lat="43.23324" lon="6.36469">
        <ele>353.20001220703</ele>
        <time>2013-08-15T10:43:48Z</time>
      </trkpt>
      <trkpt lat="43.23318" lon="6.36461">
        <ele>351.60000610352</ele>
        <time>2013-08-15T10:43:58Z</time>
      </trkpt>
      <trkpt lat="43.23303" lon="6.36454">
        <ele>350.20001220703</ele>
        <time>2013-08-15T10:44:12Z</time>
      </trkpt>
      <trkpt lat="43.23279" lon="6.36456">
        <ele>350.39999389648</ele>
        <time>2013-08-15T10:44:31Z</time>
      </trkpt>
      <trkpt lat="43.2327" lon="6.36461">
        <ele>351</ele>
        <time>2013-08-15T10:44:37Z</time>
      </trkpt>
      <trkpt lat="43.23259" lon="6.36466">
        <ele>351.79998779297</ele>
        <time>2013-08-15T10:44:52Z</time>
      </trkpt>
      <trkpt lat="43.23247" lon="6.36484">
        <ele>355.20001220703</ele>
        <time>2013-08-15T10:45:08Z</time>
      </trkpt>
      <trkpt lat="43.23233" lon="6.36508">
        <ele>360</ele>
        <time>2013-08-15T10:45:25Z</time>
      </trkpt>
      <trkpt lat="43.23213" lon="6.36508">
        <ele>361.39999389648</ele>
        <time>2013-08-15T10:45:44Z</time>
      </trkpt>
      <trkpt lat="43.23202" lon="6.36499">
        <ele>361.20001220703</ele>
        <time>2013-08-15T10:46:02Z</time>
      </trkpt>
      <trkpt lat="43.23204" lon="6.36497">
        <ele>360.79998779297</ele>
        <time>2013-08-15T10:46:04Z</time>
      </trkpt>
      <trkpt lat="43.23206" lon="6.36496">
        <ele>360.60000610352</ele>
        <time>2013-08-15T10:46:06Z</time>
      </trkpt>
      <trkpt lat="43.23222" lon="6.36486">
        <ele>357.79998779297</ele>
        <time>2013-08-15T10:46:24Z</time>
      </trkpt>
      <trkpt lat="43.23227" lon="6.36474">
        <ele>355.39999389648</ele>
        <time>2013-08-15T10:46:36Z</time>
      </trkpt>
      <trkpt lat="43.2323" lon="6.36462">
        <ele>353.20001220703</ele>
        <time>2013-08-15T10:46:48Z</time>
      </trkpt>
      <trkpt lat="43.23235" lon="6.36445">
        <ele>349.79998779297</ele>
        <time>2013-08-15T10:47:02Z</time>
      </trkpt>
      <trkpt lat="43.23246" lon="6.36423">
        <ele>344.39999389648</ele>
        <time>2013-08-15T10:47:18Z</time>
      </trkpt>
      <trkpt lat="43.23256" lon="6.36407">
        <ele>341.60000610352</ele>
        <time>2013-08-15T10:47:34Z</time>
      </trkpt>
      <trkpt lat="43.23273" lon="6.36389">
        <ele>339</ele>
        <time>2013-08-15T10:47:54Z</time>
      </trkpt>
      <trkpt lat="43.23278" lon="6.36386">
        <ele>338.39999389648</ele>
        <time>2013-08-15T10:47:59Z</time>
      </trkpt>
      <trkpt lat="43.23301" lon="6.36382">
        <ele>337.20001220703</ele>
        <time>2013-08-15T10:48:17Z</time>
      </trkpt>
      <trkpt lat="43.23304" lon="6.36377">
        <ele>336.20001220703</ele>
        <time>2013-08-15T10:48:22Z</time>
      </trkpt>
      <trkpt lat="43.23292" lon="6.36371">
        <ele>335.60000610352</ele>
        <time>2013-08-15T10:48:35Z</time>
      </trkpt>
      <trkpt lat="43.23287" lon="6.36371">
        <ele>335.60000610352</ele>
        <time>2013-08-15T10:48:39Z</time>
      </trkpt>
      <trkpt lat="43.23271" lon="6.36368">
        <ele>335.79998779297</ele>
        <time>2013-08-15T10:48:55Z</time>
      </trkpt>
      <trkpt lat="43.23257" lon="6.36363">
        <ele>335.60000610352</ele>
        <time>2013-08-15T10:49:10Z</time>
      </trkpt>
      <trkpt lat="43.23255" lon="6.36353">
        <ele>334.20001220703</ele>
        <time>2013-08-15T10:49:15Z</time>
      </trkpt>
      <trkpt lat="43.23256" lon="6.36344">
        <ele>333</ele>
        <time>2013-08-15T10:49:22Z</time>
      </trkpt>
      <trkpt lat="43.23267" lon="6.36333">
        <ele>330.79998779297</ele>
        <time>2013-08-15T10:49:36Z</time>
      </trkpt>
      <trkpt lat="43.23284" lon="6.36327">
        <ele>329.79998779297</ele>
        <time>2013-08-15T10:49:50Z</time>
      </trkpt>
      <trkpt lat="43.23299" lon="6.36324">
        <ele>328.79998779297</ele>
        <time>2013-08-15T10:50:06Z</time>
      </trkpt>
      <trkpt lat="43.23312" lon="6.3632">
        <ele>327.79998779297</ele>
        <time>2013-08-15T10:50:22Z</time>
      </trkpt>
      <trkpt lat="43.2333" lon="6.36318">
        <ele>326</ele>
        <time>2013-08-15T10:50:37Z</time>
      </trkpt>
      <trkpt lat="43.23345" lon="6.36316">
        <ele>324.39999389648</ele>
        <time>2013-08-15T10:50:49Z</time>
      </trkpt>
      <trkpt lat="43.23362" lon="6.36315">
        <ele>322.39999389648</ele>
        <time>2013-08-15T10:51:06Z</time>
      </trkpt>
      <trkpt lat="43.23366" lon="6.36316">
        <ele>322</ele>
        <time>2013-08-15T10:51:09Z</time>
      </trkpt>
      <trkpt lat="43.23389" lon="6.36321">
        <ele>319.20001220703</ele>
        <time>2013-08-15T10:51:27Z</time>
      </trkpt>
      <trkpt lat="43.23404" lon="6.36332">
        <ele>317.39999389648</ele>
        <time>2013-08-15T10:51:44Z</time>
      </trkpt>
      <trkpt lat="43.23414" lon="6.36342">
        <ele>316.79998779297</ele>
        <time>2013-08-15T10:52:00Z</time>
      </trkpt>
    </trkseg>
  </trk>
</gpx>